<?xml version="1.0" encoding="UTF-8" standalone="no" ?>
<gpx xmlns="http://www.topografix.com/GPX/1/1" xmlns:xsi="http://www.w3.org/2001/XMLSchema-instance" xsi:schemaLocation="http://www.topografix.com/GPX/1/1 http://www.topografix.com/GPX/1/1/gpx.xsd" version="1.1" creator="VisuGPX - https://www.visugpx.com">
  <metadata>
    <name>2020-12-30 le Rothen par Altenweier et Rainkopf</name>
    <desc><![CDATA[File with points/tracks from Locus Map/3.49.1]]></desc>
  </metadata>
  <trk>
    <name><![CDATA[2020-12-30 le Rothen par Altenweier et Rainkopf]]></name>
    <extensions>
      <line xmlns="http://www.topografix.com/GPX/gpx_style/0/2">
        <color>0000FF</color>
        <opacity>0.59</opacity>
        <width>6.0</width>
      </line>
    </extensions>
    <trkseg>
      <trkpt lat="48.00146" lon="7.00257">
        <ele>622.46</ele>
        <time>2020-12-30T08:17:16.000Z</time>
      </trkpt>
      <trkpt lat="48.00133" lon="7.00261">
        <ele>622.34</ele>
        <time>2020-12-30T08:17:24.000Z</time>
      </trkpt>
      <trkpt lat="48.00123" lon="7.00272">
        <ele>622.36</ele>
        <time>2020-12-30T08:17:29.000Z</time>
      </trkpt>
      <trkpt lat="48.00131" lon="7.00282">
        <ele>622.27</ele>
        <time>2020-12-30T08:17:34.000Z</time>
      </trkpt>
      <trkpt lat="48.00139" lon="7.00272">
        <ele>622.43</ele>
        <time>2020-12-30T08:17:42.000Z</time>
      </trkpt>
      <trkpt lat="48.0014" lon="7.00256">
        <ele>622.91</ele>
        <time>2020-12-30T08:17:57.000Z</time>
      </trkpt>
      <trkpt lat="48.00142" lon="7.00241">
        <ele>625.65</ele>
        <time>2020-12-30T08:18:04.000Z</time>
      </trkpt>
      <trkpt lat="48.00138" lon="7.00228">
        <ele>626.77</ele>
        <time>2020-12-30T08:18:18.000Z</time>
      </trkpt>
      <trkpt lat="48.00139" lon="7.00214">
        <ele>630.96</ele>
        <time>2020-12-30T08:18:38.000Z</time>
      </trkpt>
      <trkpt lat="48.00132" lon="7.00194">
        <ele>638.39</ele>
        <time>2020-12-30T08:19:29.000Z</time>
      </trkpt>
      <trkpt lat="48.00142" lon="7.00198">
        <ele>639.04</ele>
        <time>2020-12-30T08:19:41.000Z</time>
      </trkpt>
      <trkpt lat="48.0015" lon="7.00206">
        <ele>639.63</ele>
        <time>2020-12-30T08:19:51.000Z</time>
      </trkpt>
      <trkpt lat="48.00153" lon="7.0022">
        <ele>640.23</ele>
        <time>2020-12-30T08:20:00.000Z</time>
      </trkpt>
      <trkpt lat="48.00158" lon="7.00232">
        <ele>639.93</ele>
        <time>2020-12-30T08:20:07.000Z</time>
      </trkpt>
      <trkpt lat="48.00165" lon="7.00241">
        <ele>638.36</ele>
        <time>2020-12-30T08:20:15.000Z</time>
      </trkpt>
      <trkpt lat="48.00173" lon="7.0025">
        <ele>638.8</ele>
        <time>2020-12-30T08:20:26.000Z</time>
      </trkpt>
      <trkpt lat="48.00182" lon="7.00249">
        <ele>643.19</ele>
        <time>2020-12-30T08:20:45.000Z</time>
      </trkpt>
      <trkpt lat="48.00185" lon="7.00236">
        <ele>642.86</ele>
        <time>2020-12-30T08:21:00.000Z</time>
      </trkpt>
      <trkpt lat="48.00187" lon="7.00222">
        <ele>642.37</ele>
        <time>2020-12-30T08:21:11.000Z</time>
      </trkpt>
      <trkpt lat="48.00191" lon="7.0021">
        <ele>641.69</ele>
        <time>2020-12-30T08:21:25.000Z</time>
      </trkpt>
      <trkpt lat="48.00185" lon="7.00198">
        <ele>642.04</ele>
        <time>2020-12-30T08:21:44.000Z</time>
      </trkpt>
      <trkpt lat="48.00181" lon="7.00186">
        <ele>642.04</ele>
        <time>2020-12-30T08:21:57.000Z</time>
      </trkpt>
      <trkpt lat="48.00181" lon="7.00172">
        <ele>642.14</ele>
        <time>2020-12-30T08:22:11.000Z</time>
      </trkpt>
      <trkpt lat="48.00186" lon="7.0016">
        <ele>643.03</ele>
        <time>2020-12-30T08:22:29.000Z</time>
      </trkpt>
      <trkpt lat="48.0019" lon="7.00135">
        <ele>644.91</ele>
        <time>2020-12-30T08:22:59.000Z</time>
      </trkpt>
      <trkpt lat="48.00192" lon="7.00119">
        <ele>644.84</ele>
        <time>2020-12-30T08:23:14.000Z</time>
      </trkpt>
      <trkpt lat="48.00191" lon="7.00094">
        <ele>644.89</ele>
        <time>2020-12-30T08:23:37.000Z</time>
      </trkpt>
      <trkpt lat="48.00199" lon="7.00083">
        <ele>650.91</ele>
        <time>2020-12-30T08:24:07.000Z</time>
      </trkpt>
      <trkpt lat="48.00208" lon="7.0008">
        <ele>656.98</ele>
        <time>2020-12-30T08:24:23.000Z</time>
      </trkpt>
      <trkpt lat="48.00217" lon="7.00076">
        <ele>660.82</ele>
        <time>2020-12-30T08:24:35.000Z</time>
      </trkpt>
      <trkpt lat="48.00226" lon="7.00071">
        <ele>664.22</ele>
        <time>2020-12-30T08:24:47.000Z</time>
      </trkpt>
      <trkpt lat="48.00232" lon="7.0006">
        <ele>664.58</ele>
        <time>2020-12-30T08:25:02.000Z</time>
      </trkpt>
      <trkpt lat="48.00241" lon="7.00057">
        <ele>664.71</ele>
        <time>2020-12-30T08:25:18.000Z</time>
      </trkpt>
      <trkpt lat="48.00256" lon="7.00045">
        <ele>666.29</ele>
        <time>2020-12-30T08:25:59.000Z</time>
      </trkpt>
      <trkpt lat="48.00265" lon="7.00041">
        <ele>668.74</ele>
        <time>2020-12-30T08:26:17.000Z</time>
      </trkpt>
      <trkpt lat="48.00274" lon="7.00039">
        <ele>669.46</ele>
        <time>2020-12-30T08:26:36.000Z</time>
      </trkpt>
      <trkpt lat="48.00284" lon="7.00041">
        <ele>672.17</ele>
        <time>2020-12-30T08:26:49.000Z</time>
      </trkpt>
      <trkpt lat="48.00293" lon="7.00033">
        <ele>676.33</ele>
        <time>2020-12-30T08:27:08.000Z</time>
      </trkpt>
      <trkpt lat="48.00305" lon="7.00028">
        <ele>678.29</ele>
        <time>2020-12-30T08:27:30.000Z</time>
      </trkpt>
      <trkpt lat="48.00312" lon="7.00037">
        <ele>680.93</ele>
        <time>2020-12-30T08:27:55.000Z</time>
      </trkpt>
      <trkpt lat="48.00316" lon="7.0005">
        <ele>685.23</ele>
        <time>2020-12-30T08:28:13.000Z</time>
      </trkpt>
      <trkpt lat="48.00313" lon="7.00063">
        <ele>687.9</ele>
        <time>2020-12-30T08:28:30.000Z</time>
      </trkpt>
      <trkpt lat="48.00315" lon="7.00077">
        <ele>692.01</ele>
        <time>2020-12-30T08:28:49.000Z</time>
      </trkpt>
      <trkpt lat="48.00316" lon="7.0009">
        <ele>696.11</ele>
        <time>2020-12-30T08:29:05.000Z</time>
      </trkpt>
      <trkpt lat="48.00313" lon="7.00103">
        <ele>706.44</ele>
        <time>2020-12-30T08:29:40.000Z</time>
      </trkpt>
      <trkpt lat="48.00317" lon="7.00118">
        <ele>706.67</ele>
        <time>2020-12-30T08:29:46.000Z</time>
      </trkpt>
      <trkpt lat="48.0032" lon="7.00092">
        <ele>706.49</ele>
        <time>2020-12-30T08:29:51.000Z</time>
      </trkpt>
      <trkpt lat="48.00321" lon="7.00105">
        <ele>705.88</ele>
        <time>2020-12-30T08:30:10.000Z</time>
      </trkpt>
      <trkpt lat="48.00322" lon="7.00119">
        <ele>703.85</ele>
        <time>2020-12-30T08:31:18.000Z</time>
      </trkpt>
      <trkpt lat="48.00315" lon="7.00135">
        <ele>704.43</ele>
        <time>2020-12-30T08:31:23.000Z</time>
      </trkpt>
      <trkpt lat="48.00319" lon="7.00121">
        <ele>705.81</ele>
        <time>2020-12-30T08:31:33.000Z</time>
      </trkpt>
      <trkpt lat="48.0032" lon="7.00135">
        <ele>712.36</ele>
        <time>2020-12-30T08:31:43.000Z</time>
      </trkpt>
      <trkpt lat="48.0033" lon="7.00148">
        <ele>716.34</ele>
        <time>2020-12-30T08:32:14.000Z</time>
      </trkpt>
      <trkpt lat="48.00343" lon="7.00125">
        <ele>716.31</ele>
        <time>2020-12-30T08:32:19.000Z</time>
      </trkpt>
      <trkpt lat="48.00334" lon="7.0014">
        <ele>716.25</ele>
        <time>2020-12-30T08:32:25.000Z</time>
      </trkpt>
      <trkpt lat="48.00311" lon="7.00164">
        <ele>716.46</ele>
        <time>2020-12-30T08:32:30.000Z</time>
      </trkpt>
      <trkpt lat="48.00303" lon="7.00175">
        <ele>716.49</ele>
        <time>2020-12-30T08:32:38.000Z</time>
      </trkpt>
      <trkpt lat="48.00295" lon="7.00188">
        <ele>717.43</ele>
        <time>2020-12-30T08:32:43.000Z</time>
      </trkpt>
      <trkpt lat="48.00304" lon="7.00184">
        <ele>718.06</ele>
        <time>2020-12-30T08:33:29.000Z</time>
      </trkpt>
      <trkpt lat="48.00314" lon="7.00189">
        <ele>718.21</ele>
        <time>2020-12-30T08:33:49.000Z</time>
      </trkpt>
      <trkpt lat="48.00325" lon="7.002">
        <ele>717.14</ele>
        <time>2020-12-30T08:34:09.000Z</time>
      </trkpt>
      <trkpt lat="48.00334" lon="7.00215">
        <ele>715.49</ele>
        <time>2020-12-30T08:34:30.000Z</time>
      </trkpt>
      <trkpt lat="48.00342" lon="7.00201">
        <ele>716.01</ele>
        <time>2020-12-30T08:35:09.000Z</time>
      </trkpt>
      <trkpt lat="48.00339" lon="7.00188">
        <ele>716.49</ele>
        <time>2020-12-30T08:35:14.000Z</time>
      </trkpt>
      <trkpt lat="48.00336" lon="7.00174">
        <ele>717.54</ele>
        <time>2020-12-30T08:35:22.000Z</time>
      </trkpt>
      <trkpt lat="48.00331" lon="7.00162">
        <ele>718.16</ele>
        <time>2020-12-30T08:35:31.000Z</time>
      </trkpt>
      <trkpt lat="48.0033" lon="7.00147">
        <ele>717.66</ele>
        <time>2020-12-30T08:35:38.000Z</time>
      </trkpt>
      <trkpt lat="48.00333" lon="7.00131">
        <ele>717.07</ele>
        <time>2020-12-30T08:35:44.000Z</time>
      </trkpt>
      <trkpt lat="48.00338" lon="7.00116">
        <ele>717.19</ele>
        <time>2020-12-30T08:36:39.000Z</time>
      </trkpt>
      <trkpt lat="48.00343" lon="7.00102">
        <ele>717.64</ele>
        <time>2020-12-30T08:36:57.000Z</time>
      </trkpt>
      <trkpt lat="48.00345" lon="7.00088">
        <ele>718.01</ele>
        <time>2020-12-30T08:37:13.000Z</time>
      </trkpt>
      <trkpt lat="48.0035" lon="7.00073">
        <ele>718.14</ele>
        <time>2020-12-30T08:37:28.000Z</time>
      </trkpt>
      <trkpt lat="48.00356" lon="7.00056">
        <ele>718.16</ele>
        <time>2020-12-30T08:37:49.000Z</time>
      </trkpt>
      <trkpt lat="48.00364" lon="7.00044">
        <ele>718.31</ele>
        <time>2020-12-30T08:38:04.000Z</time>
      </trkpt>
      <trkpt lat="48.00374" lon="7.00042">
        <ele>718.91</ele>
        <time>2020-12-30T08:38:29.000Z</time>
      </trkpt>
      <trkpt lat="48.00385" lon="7.00052">
        <ele>719.11</ele>
        <time>2020-12-30T08:38:42.000Z</time>
      </trkpt>
      <trkpt lat="48.00388" lon="7.00069">
        <ele>719.56</ele>
        <time>2020-12-30T08:38:59.000Z</time>
      </trkpt>
      <trkpt lat="48.00397" lon="7.00073">
        <ele>719.89</ele>
        <time>2020-12-30T08:39:48.000Z</time>
      </trkpt>
      <trkpt lat="48.00408" lon="7.0007">
        <ele>719.59</ele>
        <time>2020-12-30T08:40:07.000Z</time>
      </trkpt>
      <trkpt lat="48.00415" lon="7.00062">
        <ele>719.64</ele>
        <time>2020-12-30T08:40:22.000Z</time>
      </trkpt>
      <trkpt lat="48.00408" lon="7.00053">
        <ele>722.34</ele>
        <time>2020-12-30T08:41:38.000Z</time>
      </trkpt>
      <trkpt lat="48.00417" lon="7.00043">
        <ele>724.16</ele>
        <time>2020-12-30T08:41:57.000Z</time>
      </trkpt>
      <trkpt lat="48.00432" lon="7.00043">
        <ele>727.54</ele>
        <time>2020-12-30T08:44:00.000Z</time>
      </trkpt>
      <trkpt lat="48.00442" lon="7.00042">
        <ele>727.94</ele>
        <time>2020-12-30T08:44:41.000Z</time>
      </trkpt>
      <trkpt lat="48.00452" lon="7.00041">
        <ele>727.89</ele>
        <time>2020-12-30T08:45:04.000Z</time>
      </trkpt>
      <trkpt lat="48.00462" lon="7.00041">
        <ele>727.91</ele>
        <time>2020-12-30T08:45:37.000Z</time>
      </trkpt>
      <trkpt lat="48.00471" lon="7.00037">
        <ele>728.09</ele>
        <time>2020-12-30T08:45:58.000Z</time>
      </trkpt>
      <trkpt lat="48.00482" lon="7.00034">
        <ele>728.16</ele>
        <time>2020-12-30T08:46:23.000Z</time>
      </trkpt>
      <trkpt lat="48.00495" lon="7.00028">
        <ele>728.56</ele>
        <time>2020-12-30T08:46:35.000Z</time>
      </trkpt>
      <trkpt lat="48.00509" lon="7.00031">
        <ele>727.91</ele>
        <time>2020-12-30T08:46:43.000Z</time>
      </trkpt>
      <trkpt lat="48.00518" lon="7.00046">
        <ele>728.09</ele>
        <time>2020-12-30T08:47:37.000Z</time>
      </trkpt>
      <trkpt lat="48.00526" lon="7.00052">
        <ele>728.54</ele>
        <time>2020-12-30T08:48:27.000Z</time>
      </trkpt>
      <trkpt lat="48.00535" lon="7.0006">
        <ele>728.79</ele>
        <time>2020-12-30T08:49:04.000Z</time>
      </trkpt>
      <trkpt lat="48.00546" lon="7.00071">
        <ele>728.94</ele>
        <time>2020-12-30T08:49:16.000Z</time>
      </trkpt>
      <trkpt lat="48.00562" lon="7.00083">
        <ele>729.86</ele>
        <time>2020-12-30T08:51:01.000Z</time>
      </trkpt>
      <trkpt lat="48.00573" lon="7.00089">
        <ele>730.16</ele>
        <time>2020-12-30T08:51:17.000Z</time>
      </trkpt>
      <trkpt lat="48.00582" lon="7.00099">
        <ele>730.29</ele>
        <time>2020-12-30T08:51:59.000Z</time>
      </trkpt>
      <trkpt lat="48.0059" lon="7.00111">
        <ele>730.34</ele>
        <time>2020-12-30T08:52:13.000Z</time>
      </trkpt>
      <trkpt lat="48.00602" lon="7.0012">
        <ele>730.61</ele>
        <time>2020-12-30T08:52:22.000Z</time>
      </trkpt>
      <trkpt lat="48.00612" lon="7.0012">
        <ele>730.91</ele>
        <time>2020-12-30T08:53:15.000Z</time>
      </trkpt>
      <trkpt lat="48.00625" lon="7.00123">
        <ele>730.74</ele>
        <time>2020-12-30T08:53:45.000Z</time>
      </trkpt>
      <trkpt lat="48.00636" lon="7.00118">
        <ele>730.74</ele>
        <time>2020-12-30T08:54:02.000Z</time>
      </trkpt>
      <trkpt lat="48.00647" lon="7.00116">
        <ele>730.96</ele>
        <time>2020-12-30T08:54:33.000Z</time>
      </trkpt>
      <trkpt lat="48.00659" lon="7.0011">
        <ele>731.21</ele>
        <time>2020-12-30T08:54:44.000Z</time>
      </trkpt>
      <trkpt lat="48.0067" lon="7.00108">
        <ele>731.41</ele>
        <time>2020-12-30T08:55:04.000Z</time>
      </trkpt>
      <trkpt lat="48.0068" lon="7.001">
        <ele>731.94</ele>
        <time>2020-12-30T08:55:31.000Z</time>
      </trkpt>
      <trkpt lat="48.0069" lon="7.00092">
        <ele>732.06</ele>
        <time>2020-12-30T08:55:45.000Z</time>
      </trkpt>
      <trkpt lat="48.00703" lon="7.0009">
        <ele>732.16</ele>
        <time>2020-12-30T08:55:55.000Z</time>
      </trkpt>
      <trkpt lat="48.00716" lon="7.00083">
        <ele>732.66</ele>
        <time>2020-12-30T08:56:06.000Z</time>
      </trkpt>
      <trkpt lat="48.00733" lon="7.00079">
        <ele>733.11</ele>
        <time>2020-12-30T08:56:15.000Z</time>
      </trkpt>
      <trkpt lat="48.00748" lon="7.00078">
        <ele>732.94</ele>
        <time>2020-12-30T08:56:24.000Z</time>
      </trkpt>
      <trkpt lat="48.00763" lon="7.00078">
        <ele>732.77</ele>
        <time>2020-12-30T08:56:31.000Z</time>
      </trkpt>
      <trkpt lat="48.00777" lon="7.00082">
        <ele>733.12</ele>
        <time>2020-12-30T08:56:44.000Z</time>
      </trkpt>
      <trkpt lat="48.00789" lon="7.00079">
        <ele>733.79</ele>
        <time>2020-12-30T08:56:56.000Z</time>
      </trkpt>
      <trkpt lat="48.00799" lon="7.00078">
        <ele>734.82</ele>
        <time>2020-12-30T08:57:09.000Z</time>
      </trkpt>
      <trkpt lat="48.00809" lon="7.00065">
        <ele>735.89</ele>
        <time>2020-12-30T08:57:36.000Z</time>
      </trkpt>
      <trkpt lat="48.00819" lon="7.0006">
        <ele>736.22</ele>
        <time>2020-12-30T08:57:56.000Z</time>
      </trkpt>
      <trkpt lat="48.00829" lon="7.00057">
        <ele>736.72</ele>
        <time>2020-12-30T08:58:11.000Z</time>
      </trkpt>
      <trkpt lat="48.00839" lon="7.00049">
        <ele>737.72</ele>
        <time>2020-12-30T08:58:30.000Z</time>
      </trkpt>
      <trkpt lat="48.00849" lon="7.00041">
        <ele>738.42</ele>
        <time>2020-12-30T08:58:54.000Z</time>
      </trkpt>
      <trkpt lat="48.0086" lon="7.00036">
        <ele>739.14</ele>
        <time>2020-12-30T08:59:08.000Z</time>
      </trkpt>
      <trkpt lat="48.00872" lon="7.00027">
        <ele>739.57</ele>
        <time>2020-12-30T08:59:20.000Z</time>
      </trkpt>
      <trkpt lat="48.00885" lon="7.00027">
        <ele>740.02</ele>
        <time>2020-12-30T08:59:31.000Z</time>
      </trkpt>
      <trkpt lat="48.00898" lon="7.00029">
        <ele>741.24</ele>
        <time>2020-12-30T08:59:41.000Z</time>
      </trkpt>
      <trkpt lat="48.00908" lon="7.00023">
        <ele>743.03</ele>
        <time>2020-12-30T09:00:07.000Z</time>
      </trkpt>
      <trkpt lat="48.00917" lon="7.00038">
        <ele>743.16</ele>
        <time>2020-12-30T09:00:12.000Z</time>
      </trkpt>
      <trkpt lat="48.00926" lon="7.00032">
        <ele>743.27</ele>
        <time>2020-12-30T09:00:18.000Z</time>
      </trkpt>
      <trkpt lat="48.00934" lon="7.00077">
        <ele>743.64</ele>
        <time>2020-12-30T09:00:23.000Z</time>
      </trkpt>
      <trkpt lat="48.00906" lon="7.00019">
        <ele>744.13</ele>
        <time>2020-12-30T09:00:28.000Z</time>
      </trkpt>
      <trkpt lat="48.00895" lon="7.00006">
        <ele>746.52</ele>
        <time>2020-12-30T09:00:45.000Z</time>
      </trkpt>
      <trkpt lat="48.00879" lon="6.99976">
        <ele>748.9</ele>
        <time>2020-12-30T09:00:50.000Z</time>
      </trkpt>
      <trkpt lat="48.00891" lon="6.99985">
        <ele>765.19</ele>
        <time>2020-12-30T09:01:46.000Z</time>
      </trkpt>
      <trkpt lat="48.00898" lon="6.99975">
        <ele>766.14</ele>
        <time>2020-12-30T09:02:33.000Z</time>
      </trkpt>
      <trkpt lat="48.00904" lon="6.99965">
        <ele>765.47</ele>
        <time>2020-12-30T09:03:06.000Z</time>
      </trkpt>
      <trkpt lat="48.0091" lon="6.99952">
        <ele>764.49</ele>
        <time>2020-12-30T09:03:27.000Z</time>
      </trkpt>
      <trkpt lat="48.00914" lon="6.99936">
        <ele>763.34</ele>
        <time>2020-12-30T09:03:45.000Z</time>
      </trkpt>
      <trkpt lat="48.00919" lon="6.99922">
        <ele>763.54</ele>
        <time>2020-12-30T09:04:01.000Z</time>
      </trkpt>
      <trkpt lat="48.00924" lon="6.99908">
        <ele>765.49</ele>
        <time>2020-12-30T09:04:20.000Z</time>
      </trkpt>
      <trkpt lat="48.00931" lon="6.99894">
        <ele>767.89</ele>
        <time>2020-12-30T09:04:34.000Z</time>
      </trkpt>
      <trkpt lat="48.00943" lon="6.99891">
        <ele>769.19</ele>
        <time>2020-12-30T09:04:46.000Z</time>
      </trkpt>
      <trkpt lat="48.00954" lon="6.99889">
        <ele>770.49</ele>
        <time>2020-12-30T09:05:02.000Z</time>
      </trkpt>
      <trkpt lat="48.00964" lon="6.99887">
        <ele>774.47</ele>
        <time>2020-12-30T09:05:33.000Z</time>
      </trkpt>
      <trkpt lat="48.0097" lon="6.99874">
        <ele>777.34</ele>
        <time>2020-12-30T09:05:50.000Z</time>
      </trkpt>
      <trkpt lat="48.00979" lon="6.99862">
        <ele>779.57</ele>
        <time>2020-12-30T09:06:10.000Z</time>
      </trkpt>
      <trkpt lat="48.0099" lon="6.99856">
        <ele>781.44</ele>
        <time>2020-12-30T09:06:25.000Z</time>
      </trkpt>
      <trkpt lat="48.01" lon="6.99849">
        <ele>785.27</ele>
        <time>2020-12-30T09:06:49.000Z</time>
      </trkpt>
      <trkpt lat="48.01008" lon="6.99839">
        <ele>789.34</ele>
        <time>2020-12-30T09:07:05.000Z</time>
      </trkpt>
      <trkpt lat="48.01012" lon="6.99826">
        <ele>791.39</ele>
        <time>2020-12-30T09:07:28.000Z</time>
      </trkpt>
      <trkpt lat="48.01022" lon="6.99819">
        <ele>793.99</ele>
        <time>2020-12-30T09:07:44.000Z</time>
      </trkpt>
      <trkpt lat="48.01031" lon="6.99815">
        <ele>796.09</ele>
        <time>2020-12-30T09:08:07.000Z</time>
      </trkpt>
      <trkpt lat="48.01043" lon="6.99811">
        <ele>798.89</ele>
        <time>2020-12-30T09:08:20.000Z</time>
      </trkpt>
      <trkpt lat="48.01054" lon="6.99808">
        <ele>804.17</ele>
        <time>2020-12-30T09:08:36.000Z</time>
      </trkpt>
      <trkpt lat="48.01065" lon="6.99804">
        <ele>810.37</ele>
        <time>2020-12-30T09:08:51.000Z</time>
      </trkpt>
      <trkpt lat="48.01076" lon="6.99805">
        <ele>815.72</ele>
        <time>2020-12-30T09:09:03.000Z</time>
      </trkpt>
      <trkpt lat="48.01086" lon="6.99796">
        <ele>822.49</ele>
        <time>2020-12-30T09:09:20.000Z</time>
      </trkpt>
      <trkpt lat="48.01097" lon="6.99789">
        <ele>828.12</ele>
        <time>2020-12-30T09:09:33.000Z</time>
      </trkpt>
      <trkpt lat="48.01106" lon="6.99797">
        <ele>832.32</ele>
        <time>2020-12-30T09:09:55.000Z</time>
      </trkpt>
      <trkpt lat="48.01119" lon="6.99797">
        <ele>833.02</ele>
        <time>2020-12-30T09:10:09.000Z</time>
      </trkpt>
      <trkpt lat="48.0112" lon="6.99815">
        <ele>833.34</ele>
        <time>2020-12-30T09:10:19.000Z</time>
      </trkpt>
      <trkpt lat="48.01113" lon="6.99805">
        <ele>833.47</ele>
        <time>2020-12-30T09:10:28.000Z</time>
      </trkpt>
      <trkpt lat="48.01126" lon="6.99836">
        <ele>833.27</ele>
        <time>2020-12-30T09:10:33.000Z</time>
      </trkpt>
      <trkpt lat="48.01121" lon="6.99806">
        <ele>833.64</ele>
        <time>2020-12-30T09:10:38.000Z</time>
      </trkpt>
      <trkpt lat="48.01115" lon="6.99796">
        <ele>833.97</ele>
        <time>2020-12-30T09:11:20.000Z</time>
      </trkpt>
      <trkpt lat="48.01101" lon="6.99741">
        <ele>834.46</ele>
        <time>2020-12-30T09:11:25.000Z</time>
      </trkpt>
      <trkpt lat="48.01104" lon="6.99766">
        <ele>834.87</ele>
        <time>2020-12-30T09:11:30.000Z</time>
      </trkpt>
      <trkpt lat="48.01102" lon="6.99785">
        <ele>847.93</ele>
        <time>2020-12-30T09:13:37.000Z</time>
      </trkpt>
      <trkpt lat="48.01108" lon="6.99769">
        <ele>856.07</ele>
        <time>2020-12-30T09:15:31.000Z</time>
      </trkpt>
      <trkpt lat="48.01103" lon="6.99757">
        <ele>860.53</ele>
        <time>2020-12-30T09:15:43.000Z</time>
      </trkpt>
      <trkpt lat="48.01097" lon="6.99742">
        <ele>861.54</ele>
        <time>2020-12-30T09:15:55.000Z</time>
      </trkpt>
      <trkpt lat="48.01092" lon="6.9973">
        <ele>863.47</ele>
        <time>2020-12-30T09:16:04.000Z</time>
      </trkpt>
      <trkpt lat="48.01088" lon="6.99718">
        <ele>865.37</ele>
        <time>2020-12-30T09:16:13.000Z</time>
      </trkpt>
      <trkpt lat="48.01082" lon="6.99704">
        <ele>867.47</ele>
        <time>2020-12-30T09:16:20.000Z</time>
      </trkpt>
      <trkpt lat="48.01075" lon="6.99689">
        <ele>870.67</ele>
        <time>2020-12-30T09:16:32.000Z</time>
      </trkpt>
      <trkpt lat="48.0107" lon="6.99673">
        <ele>872.44</ele>
        <time>2020-12-30T09:16:46.000Z</time>
      </trkpt>
      <trkpt lat="48.01065" lon="6.99657">
        <ele>873.84</ele>
        <time>2020-12-30T09:17:00.000Z</time>
      </trkpt>
      <trkpt lat="48.01065" lon="6.99639">
        <ele>875.42</ele>
        <time>2020-12-30T09:17:18.000Z</time>
      </trkpt>
      <trkpt lat="48.01066" lon="6.99622">
        <ele>876.94</ele>
        <time>2020-12-30T09:17:35.000Z</time>
      </trkpt>
      <trkpt lat="48.01067" lon="6.99606">
        <ele>878.29</ele>
        <time>2020-12-30T09:17:51.000Z</time>
      </trkpt>
      <trkpt lat="48.01071" lon="6.9959">
        <ele>879.47</ele>
        <time>2020-12-30T09:18:09.000Z</time>
      </trkpt>
      <trkpt lat="48.01067" lon="6.99574">
        <ele>881.49</ele>
        <time>2020-12-30T09:18:38.000Z</time>
      </trkpt>
      <trkpt lat="48.01068" lon="6.99557">
        <ele>883.97</ele>
        <time>2020-12-30T09:18:55.000Z</time>
      </trkpt>
      <trkpt lat="48.01072" lon="6.9954">
        <ele>885.9</ele>
        <time>2020-12-30T09:19:12.000Z</time>
      </trkpt>
      <trkpt lat="48.01077" lon="6.99525">
        <ele>886.87</ele>
        <time>2020-12-30T09:19:48.000Z</time>
      </trkpt>
      <trkpt lat="48.01081" lon="6.99511">
        <ele>887.77</ele>
        <time>2020-12-30T09:20:05.000Z</time>
      </trkpt>
      <trkpt lat="48.01085" lon="6.99495">
        <ele>888.3</ele>
        <time>2020-12-30T09:20:32.000Z</time>
      </trkpt>
      <trkpt lat="48.01087" lon="6.99481">
        <ele>888.7</ele>
        <time>2020-12-30T09:20:59.000Z</time>
      </trkpt>
      <trkpt lat="48.01086" lon="6.99464">
        <ele>889.72</ele>
        <time>2020-12-30T09:21:16.000Z</time>
      </trkpt>
      <trkpt lat="48.0109" lon="6.99447">
        <ele>890.82</ele>
        <time>2020-12-30T09:21:35.000Z</time>
      </trkpt>
      <trkpt lat="48.01092" lon="6.99432">
        <ele>891.7</ele>
        <time>2020-12-30T09:21:56.000Z</time>
      </trkpt>
      <trkpt lat="48.01091" lon="6.99415">
        <ele>892.2</ele>
        <time>2020-12-30T09:22:17.000Z</time>
      </trkpt>
      <trkpt lat="48.01086" lon="6.994">
        <ele>892.3</ele>
        <time>2020-12-30T09:22:34.000Z</time>
      </trkpt>
      <trkpt lat="48.0108" lon="6.99385">
        <ele>891.87</ele>
        <time>2020-12-30T09:22:49.000Z</time>
      </trkpt>
      <trkpt lat="48.01077" lon="6.99368">
        <ele>891.67</ele>
        <time>2020-12-30T09:23:04.000Z</time>
      </trkpt>
      <trkpt lat="48.01071" lon="6.99354">
        <ele>891.05</ele>
        <time>2020-12-30T09:23:23.000Z</time>
      </trkpt>
      <trkpt lat="48.01063" lon="6.99341">
        <ele>890.4</ele>
        <time>2020-12-30T09:23:40.000Z</time>
      </trkpt>
      <trkpt lat="48.01055" lon="6.99328">
        <ele>890.17</ele>
        <time>2020-12-30T09:23:56.000Z</time>
      </trkpt>
      <trkpt lat="48.01048" lon="6.99317">
        <ele>891.1</ele>
        <time>2020-12-30T09:24:13.000Z</time>
      </trkpt>
      <trkpt lat="48.0104" lon="6.99305">
        <ele>892.2</ele>
        <time>2020-12-30T09:24:31.000Z</time>
      </trkpt>
      <trkpt lat="48.0103" lon="6.99294">
        <ele>892.92</ele>
        <time>2020-12-30T09:24:46.000Z</time>
      </trkpt>
      <trkpt lat="48.0102" lon="6.9929">
        <ele>894.1</ele>
        <time>2020-12-30T09:25:00.000Z</time>
      </trkpt>
      <trkpt lat="48.01007" lon="6.99291">
        <ele>896.5</ele>
        <time>2020-12-30T09:25:18.000Z</time>
      </trkpt>
      <trkpt lat="48.00997" lon="6.993">
        <ele>898.47</ele>
        <time>2020-12-30T09:25:32.000Z</time>
      </trkpt>
      <trkpt lat="48.00988" lon="6.99308">
        <ele>899.72</ele>
        <time>2020-12-30T09:25:49.000Z</time>
      </trkpt>
      <trkpt lat="48.00978" lon="6.99317">
        <ele>901</ele>
        <time>2020-12-30T09:26:03.000Z</time>
      </trkpt>
      <trkpt lat="48.00968" lon="6.99324">
        <ele>902.52</ele>
        <time>2020-12-30T09:26:22.000Z</time>
      </trkpt>
      <trkpt lat="48.00958" lon="6.9933">
        <ele>903.38</ele>
        <time>2020-12-30T09:26:44.000Z</time>
      </trkpt>
      <trkpt lat="48.00947" lon="6.99333">
        <ele>902.98</ele>
        <time>2020-12-30T09:26:49.000Z</time>
      </trkpt>
      <trkpt lat="48.00931" lon="6.9931">
        <ele>902.87</ele>
        <time>2020-12-30T09:26:55.000Z</time>
      </trkpt>
      <trkpt lat="48.0094" lon="6.99314">
        <ele>903.14</ele>
        <time>2020-12-30T09:27:01.000Z</time>
      </trkpt>
      <trkpt lat="48.0097" lon="6.99311">
        <ele>905.36</ele>
        <time>2020-12-30T09:27:06.000Z</time>
      </trkpt>
      <trkpt lat="48.00966" lon="6.99272">
        <ele>920.7</ele>
        <time>2020-12-30T09:29:38.000Z</time>
      </trkpt>
      <trkpt lat="48.00976" lon="6.9927">
        <ele>922.3</ele>
        <time>2020-12-30T09:30:43.000Z</time>
      </trkpt>
      <trkpt lat="48.00988" lon="6.99266">
        <ele>920.7</ele>
        <time>2020-12-30T09:30:59.000Z</time>
      </trkpt>
      <trkpt lat="48.00998" lon="6.99257">
        <ele>919.92</ele>
        <time>2020-12-30T09:31:14.000Z</time>
      </trkpt>
      <trkpt lat="48.01008" lon="6.99247">
        <ele>919.9</ele>
        <time>2020-12-30T09:31:30.000Z</time>
      </trkpt>
      <trkpt lat="48.01016" lon="6.99234">
        <ele>921</ele>
        <time>2020-12-30T09:31:55.000Z</time>
      </trkpt>
      <trkpt lat="48.01025" lon="6.99223">
        <ele>922.67</ele>
        <time>2020-12-30T09:32:15.000Z</time>
      </trkpt>
      <trkpt lat="48.01034" lon="6.99214">
        <ele>923.62</ele>
        <time>2020-12-30T09:32:30.000Z</time>
      </trkpt>
      <trkpt lat="48.01041" lon="6.992">
        <ele>924.05</ele>
        <time>2020-12-30T09:32:53.000Z</time>
      </trkpt>
      <trkpt lat="48.01051" lon="6.99191">
        <ele>923.7</ele>
        <time>2020-12-30T09:33:05.000Z</time>
      </trkpt>
      <trkpt lat="48.01061" lon="6.99182">
        <ele>924.15</ele>
        <time>2020-12-30T09:33:18.000Z</time>
      </trkpt>
      <trkpt lat="48.01071" lon="6.9917">
        <ele>925.1</ele>
        <time>2020-12-30T09:33:33.000Z</time>
      </trkpt>
      <trkpt lat="48.0108" lon="6.99161">
        <ele>926.05</ele>
        <time>2020-12-30T09:33:52.000Z</time>
      </trkpt>
      <trkpt lat="48.01091" lon="6.99152">
        <ele>928.1</ele>
        <time>2020-12-30T09:34:09.000Z</time>
      </trkpt>
      <trkpt lat="48.011" lon="6.99142">
        <ele>929.47</ele>
        <time>2020-12-30T09:34:26.000Z</time>
      </trkpt>
      <trkpt lat="48.01112" lon="6.99134">
        <ele>930.07</ele>
        <time>2020-12-30T09:34:42.000Z</time>
      </trkpt>
      <trkpt lat="48.01119" lon="6.9912">
        <ele>932.4</ele>
        <time>2020-12-30T09:35:00.000Z</time>
      </trkpt>
      <trkpt lat="48.01118" lon="6.99104">
        <ele>933.95</ele>
        <time>2020-12-30T09:35:53.000Z</time>
      </trkpt>
      <trkpt lat="48.01115" lon="6.99088">
        <ele>933.85</ele>
        <time>2020-12-30T09:36:08.000Z</time>
      </trkpt>
      <trkpt lat="48.01112" lon="6.99072">
        <ele>933.6</ele>
        <time>2020-12-30T09:36:31.000Z</time>
      </trkpt>
      <trkpt lat="48.01101" lon="6.99069">
        <ele>934.45</ele>
        <time>2020-12-30T09:36:47.000Z</time>
      </trkpt>
      <trkpt lat="48.01093" lon="6.99061">
        <ele>935.6</ele>
        <time>2020-12-30T09:37:23.000Z</time>
      </trkpt>
      <trkpt lat="48.01089" lon="6.99046">
        <ele>936.57</ele>
        <time>2020-12-30T09:38:10.000Z</time>
      </trkpt>
      <trkpt lat="48.01082" lon="6.99035">
        <ele>937.25</ele>
        <time>2020-12-30T09:38:28.000Z</time>
      </trkpt>
      <trkpt lat="48.01074" lon="6.99021">
        <ele>937.75</ele>
        <time>2020-12-30T09:38:46.000Z</time>
      </trkpt>
      <trkpt lat="48.01068" lon="6.99008">
        <ele>938.2</ele>
        <time>2020-12-30T09:38:59.000Z</time>
      </trkpt>
      <trkpt lat="48.01064" lon="6.98991">
        <ele>938.82</ele>
        <time>2020-12-30T09:39:17.000Z</time>
      </trkpt>
      <trkpt lat="48.01064" lon="6.98974">
        <ele>938.95</ele>
        <time>2020-12-30T09:39:33.000Z</time>
      </trkpt>
      <trkpt lat="48.01056" lon="6.98982">
        <ele>938.89</ele>
        <time>2020-12-30T09:39:53.000Z</time>
      </trkpt>
      <trkpt lat="48.01055" lon="6.98998">
        <ele>938.87</ele>
        <time>2020-12-30T09:40:15.000Z</time>
      </trkpt>
      <trkpt lat="48.01046" lon="6.98991">
        <ele>939.8</ele>
        <time>2020-12-30T09:41:01.000Z</time>
      </trkpt>
      <trkpt lat="48.01047" lon="6.98975">
        <ele>940.45</ele>
        <time>2020-12-30T09:41:16.000Z</time>
      </trkpt>
      <trkpt lat="48.01037" lon="6.98975">
        <ele>940.92</ele>
        <time>2020-12-30T09:41:35.000Z</time>
      </trkpt>
      <trkpt lat="48.01035" lon="6.98989">
        <ele>943.7</ele>
        <time>2020-12-30T09:42:15.000Z</time>
      </trkpt>
      <trkpt lat="48.01038" lon="6.99004">
        <ele>944.72</ele>
        <time>2020-12-30T09:42:29.000Z</time>
      </trkpt>
      <trkpt lat="48.0104" lon="6.99021">
        <ele>946.87</ele>
        <time>2020-12-30T09:42:43.000Z</time>
      </trkpt>
      <trkpt lat="48.01037" lon="6.99034">
        <ele>947.15</ele>
        <time>2020-12-30T09:43:37.000Z</time>
      </trkpt>
      <trkpt lat="48.01048" lon="6.99043">
        <ele>946.9</ele>
        <time>2020-12-30T09:43:48.000Z</time>
      </trkpt>
      <trkpt lat="48.01055" lon="6.99057">
        <ele>947.09</ele>
        <time>2020-12-30T09:43:53.000Z</time>
      </trkpt>
      <trkpt lat="48.01048" lon="6.99047">
        <ele>949.4</ele>
        <time>2020-12-30T09:44:47.000Z</time>
      </trkpt>
      <trkpt lat="48.0104" lon="6.99039">
        <ele>951.55</ele>
        <time>2020-12-30T09:46:09.000Z</time>
      </trkpt>
      <trkpt lat="48.01039" lon="6.99053">
        <ele>952.55</ele>
        <time>2020-12-30T09:46:55.000Z</time>
      </trkpt>
      <trkpt lat="48.01038" lon="6.99068">
        <ele>954.97</ele>
        <time>2020-12-30T09:47:17.000Z</time>
      </trkpt>
      <trkpt lat="48.0103" lon="6.99077">
        <ele>958.65</ele>
        <time>2020-12-30T09:47:42.000Z</time>
      </trkpt>
      <trkpt lat="48.01022" lon="6.99087">
        <ele>962.9</ele>
        <time>2020-12-30T09:48:10.000Z</time>
      </trkpt>
      <trkpt lat="48.01009" lon="6.99075">
        <ele>963.91</ele>
        <time>2020-12-30T09:48:15.000Z</time>
      </trkpt>
      <trkpt lat="48.01015" lon="6.99039">
        <ele>964.82</ele>
        <time>2020-12-30T09:48:20.000Z</time>
      </trkpt>
      <trkpt lat="48.01019" lon="6.99085">
        <ele>970.31</ele>
        <time>2020-12-30T09:48:25.000Z</time>
      </trkpt>
      <trkpt lat="48.01025" lon="6.99107">
        <ele>974.01</ele>
        <time>2020-12-30T09:48:30.000Z</time>
      </trkpt>
      <trkpt lat="48.01021" lon="6.99092">
        <ele>978.77</ele>
        <time>2020-12-30T09:48:53.000Z</time>
      </trkpt>
      <trkpt lat="48.01013" lon="6.9908">
        <ele>984.42</ele>
        <time>2020-12-30T09:49:47.000Z</time>
      </trkpt>
      <trkpt lat="48.01007" lon="6.99069">
        <ele>986.12</ele>
        <time>2020-12-30T09:50:27.000Z</time>
      </trkpt>
      <trkpt lat="48.00998" lon="6.99075">
        <ele>987.1</ele>
        <time>2020-12-30T09:51:04.000Z</time>
      </trkpt>
      <trkpt lat="48.00989" lon="6.99066">
        <ele>989.02</ele>
        <time>2020-12-30T09:52:43.000Z</time>
      </trkpt>
      <trkpt lat="48.00979" lon="6.99064">
        <ele>989.67</ele>
        <time>2020-12-30T09:53:37.000Z</time>
      </trkpt>
      <trkpt lat="48.00969" lon="6.99066">
        <ele>991.92</ele>
        <time>2020-12-30T09:54:10.000Z</time>
      </trkpt>
      <trkpt lat="48.00958" lon="6.99064">
        <ele>997.42</ele>
        <time>2020-12-30T09:55:20.000Z</time>
      </trkpt>
      <trkpt lat="48.00957" lon="6.9905">
        <ele>1002.87</ele>
        <time>2020-12-30T09:56:14.000Z</time>
      </trkpt>
      <trkpt lat="48.00963" lon="6.99035">
        <ele>1004.85</ele>
        <time>2020-12-30T09:56:49.000Z</time>
      </trkpt>
      <trkpt lat="48.00954" lon="6.9904">
        <ele>1008.19</ele>
        <time>2020-12-30T09:57:46.000Z</time>
      </trkpt>
      <trkpt lat="48.00945" lon="6.99046">
        <ele>1010.2</ele>
        <time>2020-12-30T09:58:03.000Z</time>
      </trkpt>
      <trkpt lat="48.00945" lon="6.99032">
        <ele>1013.49</ele>
        <time>2020-12-30T09:59:15.000Z</time>
      </trkpt>
      <trkpt lat="48.00947" lon="6.99017">
        <ele>1014.85</ele>
        <time>2020-12-30T09:59:32.000Z</time>
      </trkpt>
      <trkpt lat="48.00938" lon="6.99018">
        <ele>1016.27</ele>
        <time>2020-12-30T10:01:00.000Z</time>
      </trkpt>
      <trkpt lat="48.00932" lon="6.99006">
        <ele>1017.67</ele>
        <time>2020-12-30T10:02:00.000Z</time>
      </trkpt>
      <trkpt lat="48.00924" lon="6.99002">
        <ele>1019.25</ele>
        <time>2020-12-30T10:02:52.000Z</time>
      </trkpt>
      <trkpt lat="48.00913" lon="6.99003">
        <ele>1019.82</ele>
        <time>2020-12-30T10:03:23.000Z</time>
      </trkpt>
      <trkpt lat="48.00902" lon="6.98997">
        <ele>1021.5</ele>
        <time>2020-12-30T10:03:54.000Z</time>
      </trkpt>
      <trkpt lat="48.00891" lon="6.98995">
        <ele>1023.37</ele>
        <time>2020-12-30T10:04:13.000Z</time>
      </trkpt>
      <trkpt lat="48.00892" lon="6.98981">
        <ele>1027.17</ele>
        <time>2020-12-30T10:05:13.000Z</time>
      </trkpt>
      <trkpt lat="48.00884" lon="6.98975">
        <ele>1030.04</ele>
        <time>2020-12-30T10:06:02.000Z</time>
      </trkpt>
      <trkpt lat="48.00874" lon="6.9897">
        <ele>1031.62</ele>
        <time>2020-12-30T10:06:27.000Z</time>
      </trkpt>
      <trkpt lat="48.00873" lon="6.98955">
        <ele>1035.4</ele>
        <time>2020-12-30T10:07:47.000Z</time>
      </trkpt>
      <trkpt lat="48.00877" lon="6.9894">
        <ele>1041.6</ele>
        <time>2020-12-30T10:09:47.000Z</time>
      </trkpt>
      <trkpt lat="48.00878" lon="6.98926">
        <ele>1046.22</ele>
        <time>2020-12-30T10:11:08.000Z</time>
      </trkpt>
      <trkpt lat="48.00885" lon="6.98938">
        <ele>1050.09</ele>
        <time>2020-12-30T10:11:19.000Z</time>
      </trkpt>
      <trkpt lat="48.00879" lon="6.98927">
        <ele>1053.05</ele>
        <time>2020-12-30T10:11:37.000Z</time>
      </trkpt>
      <trkpt lat="48.00873" lon="6.98916">
        <ele>1056.96</ele>
        <time>2020-12-30T10:11:42.000Z</time>
      </trkpt>
      <trkpt lat="48.00863" lon="6.98914">
        <ele>1059.48</ele>
        <time>2020-12-30T10:11:47.000Z</time>
      </trkpt>
      <trkpt lat="48.00874" lon="6.98926">
        <ele>1065.4</ele>
        <time>2020-12-30T10:12:02.000Z</time>
      </trkpt>
      <trkpt lat="48.0087" lon="6.9894">
        <ele>1089.66</ele>
        <time>2020-12-30T10:14:32.000Z</time>
      </trkpt>
      <trkpt lat="48.00871" lon="6.98917">
        <ele>1104.22</ele>
        <time>2020-12-30T10:16:50.000Z</time>
      </trkpt>
      <trkpt lat="48.00875" lon="6.98903">
        <ele>1107.32</ele>
        <time>2020-12-30T10:17:17.000Z</time>
      </trkpt>
      <trkpt lat="48.00875" lon="6.98887">
        <ele>1109.5</ele>
        <time>2020-12-30T10:17:46.000Z</time>
      </trkpt>
      <trkpt lat="48.00874" lon="6.98871">
        <ele>1108.9</ele>
        <time>2020-12-30T10:18:14.000Z</time>
      </trkpt>
      <trkpt lat="48.00865" lon="6.98866">
        <ele>1109.95</ele>
        <time>2020-12-30T10:19:38.000Z</time>
      </trkpt>
      <trkpt lat="48.00862" lon="6.98851">
        <ele>1112.72</ele>
        <time>2020-12-30T10:20:18.000Z</time>
      </trkpt>
      <trkpt lat="48.00864" lon="6.98835">
        <ele>1116.2</ele>
        <time>2020-12-30T10:20:41.000Z</time>
      </trkpt>
      <trkpt lat="48.00867" lon="6.98818">
        <ele>1120.52</ele>
        <time>2020-12-30T10:21:03.000Z</time>
      </trkpt>
      <trkpt lat="48.0087" lon="6.98803">
        <ele>1124.9</ele>
        <time>2020-12-30T10:21:50.000Z</time>
      </trkpt>
      <trkpt lat="48.00877" lon="6.98786">
        <ele>1127</ele>
        <time>2020-12-30T10:22:37.000Z</time>
      </trkpt>
      <trkpt lat="48.00878" lon="6.98771">
        <ele>1127.93</ele>
        <time>2020-12-30T10:22:43.000Z</time>
      </trkpt>
      <trkpt lat="48.00867" lon="6.98781">
        <ele>1129.18</ele>
        <time>2020-12-30T10:22:48.000Z</time>
      </trkpt>
      <trkpt lat="48.00871" lon="6.98793">
        <ele>1131.29</ele>
        <time>2020-12-30T10:22:56.000Z</time>
      </trkpt>
      <trkpt lat="48.00878" lon="6.98772">
        <ele>1140.3</ele>
        <time>2020-12-30T10:23:34.000Z</time>
      </trkpt>
      <trkpt lat="48.00868" lon="6.9876">
        <ele>1144.45</ele>
        <time>2020-12-30T10:24:10.000Z</time>
      </trkpt>
      <trkpt lat="48.00871" lon="6.98747">
        <ele>1144.03</ele>
        <time>2020-12-30T10:24:15.000Z</time>
      </trkpt>
      <trkpt lat="48.0087" lon="6.98764">
        <ele>1144.39</ele>
        <time>2020-12-30T10:24:21.000Z</time>
      </trkpt>
      <trkpt lat="48.00877" lon="6.98756">
        <ele>1145.87</ele>
        <time>2020-12-30T10:26:35.000Z</time>
      </trkpt>
      <trkpt lat="48.00879" lon="6.9874">
        <ele>1145.87</ele>
        <time>2020-12-30T10:26:57.000Z</time>
      </trkpt>
      <trkpt lat="48.00882" lon="6.98725">
        <ele>1146.37</ele>
        <time>2020-12-30T10:27:41.000Z</time>
      </trkpt>
      <trkpt lat="48.00883" lon="6.98709">
        <ele>1147.8</ele>
        <time>2020-12-30T10:28:12.000Z</time>
      </trkpt>
      <trkpt lat="48.00885" lon="6.98694">
        <ele>1149.37</ele>
        <time>2020-12-30T10:28:49.000Z</time>
      </trkpt>
      <trkpt lat="48.00885" lon="6.9868">
        <ele>1150.27</ele>
        <time>2020-12-30T10:29:39.000Z</time>
      </trkpt>
      <trkpt lat="48.00885" lon="6.98665">
        <ele>1151.77</ele>
        <time>2020-12-30T10:29:55.000Z</time>
      </trkpt>
      <trkpt lat="48.00888" lon="6.9865">
        <ele>1153.97</ele>
        <time>2020-12-30T10:30:31.000Z</time>
      </trkpt>
      <trkpt lat="48.00889" lon="6.98635">
        <ele>1156.5</ele>
        <time>2020-12-30T10:30:57.000Z</time>
      </trkpt>
      <trkpt lat="48.00898" lon="6.98625">
        <ele>1159.55</ele>
        <time>2020-12-30T10:31:53.000Z</time>
      </trkpt>
      <trkpt lat="48.009" lon="6.98609">
        <ele>1162.1</ele>
        <time>2020-12-30T10:32:34.000Z</time>
      </trkpt>
      <trkpt lat="48.00903" lon="6.98595">
        <ele>1165.32</ele>
        <time>2020-12-30T10:33:07.000Z</time>
      </trkpt>
      <trkpt lat="48.00903" lon="6.98581">
        <ele>1169.78</ele>
        <time>2020-12-30T10:36:17.000Z</time>
      </trkpt>
      <trkpt lat="48.00904" lon="6.98565">
        <ele>1172.13</ele>
        <time>2020-12-30T10:36:36.000Z</time>
      </trkpt>
      <trkpt lat="48.00906" lon="6.98548">
        <ele>1175.98</ele>
        <time>2020-12-30T10:36:53.000Z</time>
      </trkpt>
      <trkpt lat="48.00907" lon="6.98531">
        <ele>1179.45</ele>
        <time>2020-12-30T10:37:08.000Z</time>
      </trkpt>
      <trkpt lat="48.00916" lon="6.9853">
        <ele>1186.83</ele>
        <time>2020-12-30T10:39:11.000Z</time>
      </trkpt>
      <trkpt lat="48.00926" lon="6.98533">
        <ele>1190.05</ele>
        <time>2020-12-30T10:40:24.000Z</time>
      </trkpt>
      <trkpt lat="48.00922" lon="6.98521">
        <ele>1193.9</ele>
        <time>2020-12-30T10:40:42.000Z</time>
      </trkpt>
      <trkpt lat="48.00918" lon="6.98498">
        <ele>1200.45</ele>
        <time>2020-12-30T10:40:59.000Z</time>
      </trkpt>
      <trkpt lat="48.00916" lon="6.98482">
        <ele>1205.7</ele>
        <time>2020-12-30T10:41:23.000Z</time>
      </trkpt>
      <trkpt lat="48.00925" lon="6.98484">
        <ele>1212.79</ele>
        <time>2020-12-30T10:41:59.000Z</time>
      </trkpt>
      <trkpt lat="48.00931" lon="6.98473">
        <ele>1219.45</ele>
        <time>2020-12-30T10:42:35.000Z</time>
      </trkpt>
      <trkpt lat="48.00929" lon="6.98459">
        <ele>1225.17</ele>
        <time>2020-12-30T10:43:14.000Z</time>
      </trkpt>
      <trkpt lat="48.00934" lon="6.98445">
        <ele>1226.68</ele>
        <time>2020-12-30T10:43:31.000Z</time>
      </trkpt>
      <trkpt lat="48.00933" lon="6.98428">
        <ele>1227.78</ele>
        <time>2020-12-30T10:43:50.000Z</time>
      </trkpt>
      <trkpt lat="48.00932" lon="6.98412">
        <ele>1229.08</ele>
        <time>2020-12-30T10:44:07.000Z</time>
      </trkpt>
      <trkpt lat="48.00934" lon="6.98396">
        <ele>1231.63</ele>
        <time>2020-12-30T10:44:36.000Z</time>
      </trkpt>
      <trkpt lat="48.00938" lon="6.9838">
        <ele>1234.75</ele>
        <time>2020-12-30T10:44:54.000Z</time>
      </trkpt>
      <trkpt lat="48.00942" lon="6.98364">
        <ele>1238.78</ele>
        <time>2020-12-30T10:45:12.000Z</time>
      </trkpt>
      <trkpt lat="48.00948" lon="6.9835">
        <ele>1242.93</ele>
        <time>2020-12-30T10:45:30.000Z</time>
      </trkpt>
      <trkpt lat="48.00953" lon="6.98335">
        <ele>1247.33</ele>
        <time>2020-12-30T10:46:18.000Z</time>
      </trkpt>
      <trkpt lat="48.00961" lon="6.98321">
        <ele>1249.63</ele>
        <time>2020-12-30T10:46:34.000Z</time>
      </trkpt>
      <trkpt lat="48.00968" lon="6.98307">
        <ele>1251.43</ele>
        <time>2020-12-30T10:46:49.000Z</time>
      </trkpt>
      <trkpt lat="48.00972" lon="6.98292">
        <ele>1252.83</ele>
        <time>2020-12-30T10:47:03.000Z</time>
      </trkpt>
      <trkpt lat="48.00979" lon="6.9828">
        <ele>1253.98</ele>
        <time>2020-12-30T10:47:18.000Z</time>
      </trkpt>
      <trkpt lat="48.00979" lon="6.98266">
        <ele>1255.43</ele>
        <time>2020-12-30T10:57:38.000Z</time>
      </trkpt>
      <trkpt lat="48.0098" lon="6.98252">
        <ele>1254.79</ele>
        <time>2020-12-30T10:57:48.000Z</time>
      </trkpt>
      <trkpt lat="48.00975" lon="6.98239">
        <ele>1255.27</ele>
        <time>2020-12-30T10:58:42.000Z</time>
      </trkpt>
      <trkpt lat="48.00971" lon="6.98225">
        <ele>1254.3</ele>
        <time>2020-12-30T10:58:49.000Z</time>
      </trkpt>
      <trkpt lat="48.00967" lon="6.98208">
        <ele>1253.98</ele>
        <time>2020-12-30T10:58:54.000Z</time>
      </trkpt>
      <trkpt lat="48.00963" lon="6.98194">
        <ele>1252.09</ele>
        <time>2020-12-30T10:58:59.000Z</time>
      </trkpt>
      <trkpt lat="48.00958" lon="6.98181">
        <ele>1249.61</ele>
        <time>2020-12-30T10:59:04.000Z</time>
      </trkpt>
      <trkpt lat="48.00952" lon="6.98169">
        <ele>1248.79</ele>
        <time>2020-12-30T10:59:09.000Z</time>
      </trkpt>
      <trkpt lat="48.00942" lon="6.9816">
        <ele>1248.24</ele>
        <time>2020-12-30T10:59:21.000Z</time>
      </trkpt>
      <trkpt lat="48.0093" lon="6.98151">
        <ele>1248.35</ele>
        <time>2020-12-30T10:59:26.000Z</time>
      </trkpt>
      <trkpt lat="48.00917" lon="6.98141">
        <ele>1243.58</ele>
        <time>2020-12-30T10:59:31.000Z</time>
      </trkpt>
      <trkpt lat="48.00907" lon="6.98142">
        <ele>1241.66</ele>
        <time>2020-12-30T10:59:37.000Z</time>
      </trkpt>
      <trkpt lat="48.00896" lon="6.98139">
        <ele>1240.96</ele>
        <time>2020-12-30T10:59:55.000Z</time>
      </trkpt>
      <trkpt lat="48.00876" lon="6.98125">
        <ele>1239.21</ele>
        <time>2020-12-30T11:00:00.000Z</time>
      </trkpt>
      <trkpt lat="48.00858" lon="6.98115">
        <ele>1234.89</ele>
        <time>2020-12-30T11:00:05.000Z</time>
      </trkpt>
      <trkpt lat="48.00838" lon="6.98105">
        <ele>1230.99</ele>
        <time>2020-12-30T11:00:10.000Z</time>
      </trkpt>
      <trkpt lat="48.00816" lon="6.98097">
        <ele>1227.6</ele>
        <time>2020-12-30T11:00:15.000Z</time>
      </trkpt>
      <trkpt lat="48.008" lon="6.98091">
        <ele>1224.14</ele>
        <time>2020-12-30T11:00:20.000Z</time>
      </trkpt>
      <trkpt lat="48.00791" lon="6.98083">
        <ele>1218.55</ele>
        <time>2020-12-30T11:01:08.000Z</time>
      </trkpt>
      <trkpt lat="48.00783" lon="6.98078">
        <ele>1215.99</ele>
        <time>2020-12-30T11:01:16.000Z</time>
      </trkpt>
      <trkpt lat="48.00773" lon="6.98074">
        <ele>1214.26</ele>
        <time>2020-12-30T11:01:21.000Z</time>
      </trkpt>
      <trkpt lat="48.00755" lon="6.98075">
        <ele>1211.11</ele>
        <time>2020-12-30T11:01:26.000Z</time>
      </trkpt>
      <trkpt lat="48.00734" lon="6.98071">
        <ele>1204.6</ele>
        <time>2020-12-30T11:01:31.000Z</time>
      </trkpt>
      <trkpt lat="48.00709" lon="6.98066">
        <ele>1196.58</ele>
        <time>2020-12-30T11:01:36.000Z</time>
      </trkpt>
      <trkpt lat="48.00685" lon="6.98059">
        <ele>1189.19</ele>
        <time>2020-12-30T11:01:41.000Z</time>
      </trkpt>
      <trkpt lat="48.00668" lon="6.98055">
        <ele>1181.39</ele>
        <time>2020-12-30T11:01:46.000Z</time>
      </trkpt>
      <trkpt lat="48.00664" lon="6.98042">
        <ele>1178.73</ele>
        <time>2020-12-30T11:02:15.000Z</time>
      </trkpt>
      <trkpt lat="48.00655" lon="6.9803">
        <ele>1177</ele>
        <time>2020-12-30T11:02:20.000Z</time>
      </trkpt>
      <trkpt lat="48.00645" lon="6.98031">
        <ele>1174.74</ele>
        <time>2020-12-30T11:02:25.000Z</time>
      </trkpt>
      <trkpt lat="48.00635" lon="6.98035">
        <ele>1169.3</ele>
        <time>2020-12-30T11:02:33.000Z</time>
      </trkpt>
      <trkpt lat="48.00619" lon="6.98037">
        <ele>1166.04</ele>
        <time>2020-12-30T11:02:38.000Z</time>
      </trkpt>
      <trkpt lat="48.00593" lon="6.98024">
        <ele>1161.19</ele>
        <time>2020-12-30T11:02:43.000Z</time>
      </trkpt>
      <trkpt lat="48.00563" lon="6.9801">
        <ele>1155.95</ele>
        <time>2020-12-30T11:02:48.000Z</time>
      </trkpt>
      <trkpt lat="48.00545" lon="6.98001">
        <ele>1152.36</ele>
        <time>2020-12-30T11:02:53.000Z</time>
      </trkpt>
      <trkpt lat="48.00533" lon="6.98002">
        <ele>1153.18</ele>
        <time>2020-12-30T11:14:07.000Z</time>
      </trkpt>
      <trkpt lat="48.00522" lon="6.98001">
        <ele>1153.75</ele>
        <time>2020-12-30T11:14:23.000Z</time>
      </trkpt>
      <trkpt lat="48.00512" lon="6.98002">
        <ele>1154.15</ele>
        <time>2020-12-30T11:14:34.000Z</time>
      </trkpt>
      <trkpt lat="48.00503" lon="6.98002">
        <ele>1154.7</ele>
        <time>2020-12-30T11:14:48.000Z</time>
      </trkpt>
      <trkpt lat="48.00494" lon="6.98004">
        <ele>1155.73</ele>
        <time>2020-12-30T11:15:05.000Z</time>
      </trkpt>
      <trkpt lat="48.00482" lon="6.98005">
        <ele>1157.28</ele>
        <time>2020-12-30T11:15:19.000Z</time>
      </trkpt>
      <trkpt lat="48.0047" lon="6.98004">
        <ele>1158.7</ele>
        <time>2020-12-30T11:15:34.000Z</time>
      </trkpt>
      <trkpt lat="48.00459" lon="6.98004">
        <ele>1160.38</ele>
        <time>2020-12-30T11:15:51.000Z</time>
      </trkpt>
      <trkpt lat="48.00447" lon="6.98002">
        <ele>1162.85</ele>
        <time>2020-12-30T11:16:09.000Z</time>
      </trkpt>
      <trkpt lat="48.00436" lon="6.98002">
        <ele>1165.65</ele>
        <time>2020-12-30T11:16:29.000Z</time>
      </trkpt>
      <trkpt lat="48.00425" lon="6.98">
        <ele>1167.2</ele>
        <time>2020-12-30T11:16:59.000Z</time>
      </trkpt>
      <trkpt lat="48.00413" lon="6.98">
        <ele>1168.08</ele>
        <time>2020-12-30T11:17:17.000Z</time>
      </trkpt>
      <trkpt lat="48.00402" lon="6.98">
        <ele>1169.68</ele>
        <time>2020-12-30T11:17:37.000Z</time>
      </trkpt>
      <trkpt lat="48.00391" lon="6.97999">
        <ele>1172.18</ele>
        <time>2020-12-30T11:17:56.000Z</time>
      </trkpt>
      <trkpt lat="48.00381" lon="6.97994">
        <ele>1174.63</ele>
        <time>2020-12-30T11:18:33.000Z</time>
      </trkpt>
      <trkpt lat="48.00372" lon="6.9799">
        <ele>1184.94</ele>
        <time>2020-12-30T11:21:30.000Z</time>
      </trkpt>
      <trkpt lat="48.00362" lon="6.97992">
        <ele>1186.71</ele>
        <time>2020-12-30T11:22:58.000Z</time>
      </trkpt>
      <trkpt lat="48.00353" lon="6.97991">
        <ele>1188.73</ele>
        <time>2020-12-30T11:23:16.000Z</time>
      </trkpt>
      <trkpt lat="48.00341" lon="6.9799">
        <ele>1192.53</ele>
        <time>2020-12-30T11:23:35.000Z</time>
      </trkpt>
      <trkpt lat="48.00331" lon="6.9799">
        <ele>1195.78</ele>
        <time>2020-12-30T11:24:04.000Z</time>
      </trkpt>
      <trkpt lat="48.0032" lon="6.97987">
        <ele>1198.6</ele>
        <time>2020-12-30T11:24:22.000Z</time>
      </trkpt>
      <trkpt lat="48.00309" lon="6.97986">
        <ele>1201.35</ele>
        <time>2020-12-30T11:24:41.000Z</time>
      </trkpt>
      <trkpt lat="48.00298" lon="6.97989">
        <ele>1203.32</ele>
        <time>2020-12-30T11:25:02.000Z</time>
      </trkpt>
      <trkpt lat="48.00287" lon="6.97984">
        <ele>1204.05</ele>
        <time>2020-12-30T11:25:24.000Z</time>
      </trkpt>
      <trkpt lat="48.00277" lon="6.97983">
        <ele>1204.95</ele>
        <time>2020-12-30T11:25:44.000Z</time>
      </trkpt>
      <trkpt lat="48.00266" lon="6.97982">
        <ele>1206.27</ele>
        <time>2020-12-30T11:26:01.000Z</time>
      </trkpt>
      <trkpt lat="48.00255" lon="6.97981">
        <ele>1208.37</ele>
        <time>2020-12-30T11:26:28.000Z</time>
      </trkpt>
      <trkpt lat="48.00244" lon="6.97978">
        <ele>1210.12</ele>
        <time>2020-12-30T11:26:47.000Z</time>
      </trkpt>
      <trkpt lat="48.00233" lon="6.97974">
        <ele>1211.97</ele>
        <time>2020-12-30T11:27:05.000Z</time>
      </trkpt>
      <trkpt lat="48.00223" lon="6.97974">
        <ele>1215.25</ele>
        <time>2020-12-30T11:27:45.000Z</time>
      </trkpt>
      <trkpt lat="48.00213" lon="6.97972">
        <ele>1217.12</ele>
        <time>2020-12-30T11:28:28.000Z</time>
      </trkpt>
      <trkpt lat="48.00202" lon="6.97971">
        <ele>1220.05</ele>
        <time>2020-12-30T11:28:47.000Z</time>
      </trkpt>
      <trkpt lat="48.00191" lon="6.97968">
        <ele>1222.72</ele>
        <time>2020-12-30T11:29:05.000Z</time>
      </trkpt>
      <trkpt lat="48.00179" lon="6.97968">
        <ele>1225.55</ele>
        <time>2020-12-30T11:29:23.000Z</time>
      </trkpt>
      <trkpt lat="48.00168" lon="6.97969">
        <ele>1228.32</ele>
        <time>2020-12-30T11:29:41.000Z</time>
      </trkpt>
      <trkpt lat="48.00157" lon="6.97971">
        <ele>1231.05</ele>
        <time>2020-12-30T11:29:59.000Z</time>
      </trkpt>
      <trkpt lat="48.00146" lon="6.97971">
        <ele>1233.75</ele>
        <time>2020-12-30T11:30:16.000Z</time>
      </trkpt>
      <trkpt lat="48.00136" lon="6.97978">
        <ele>1235.8</ele>
        <time>2020-12-30T11:30:35.000Z</time>
      </trkpt>
      <trkpt lat="48.00129" lon="6.97989">
        <ele>1237.47</ele>
        <time>2020-12-30T11:31:35.000Z</time>
      </trkpt>
      <trkpt lat="48.00123" lon="6.98004">
        <ele>1238.35</ele>
        <time>2020-12-30T11:31:49.000Z</time>
      </trkpt>
      <trkpt lat="48.00117" lon="6.98019">
        <ele>1239.52</ele>
        <time>2020-12-30T11:32:08.000Z</time>
      </trkpt>
      <trkpt lat="48.00109" lon="6.9803">
        <ele>1241.02</ele>
        <time>2020-12-30T11:32:32.000Z</time>
      </trkpt>
      <trkpt lat="48.00101" lon="6.9804">
        <ele>1243.25</ele>
        <time>2020-12-30T11:32:55.000Z</time>
      </trkpt>
      <trkpt lat="48.00097" lon="6.98056">
        <ele>1247</ele>
        <time>2020-12-30T11:33:34.000Z</time>
      </trkpt>
      <trkpt lat="48.00094" lon="6.98071">
        <ele>1251.42</ele>
        <time>2020-12-30T11:33:55.000Z</time>
      </trkpt>
      <trkpt lat="48.00087" lon="6.98082">
        <ele>1252.37</ele>
        <time>2020-12-30T11:34:29.000Z</time>
      </trkpt>
      <trkpt lat="48.0008" lon="6.98095">
        <ele>1252.25</ele>
        <time>2020-12-30T11:34:45.000Z</time>
      </trkpt>
      <trkpt lat="48.00071" lon="6.98102">
        <ele>1255.57</ele>
        <time>2020-12-30T11:36:23.000Z</time>
      </trkpt>
      <trkpt lat="48.00079" lon="6.98108">
        <ele>1256.63</ele>
        <time>2020-12-30T11:36:50.000Z</time>
      </trkpt>
      <trkpt lat="48.00068" lon="6.98107">
        <ele>1267.35</ele>
        <time>2020-12-30T11:47:04.000Z</time>
      </trkpt>
      <trkpt lat="48.00057" lon="6.98101">
        <ele>1263.4</ele>
        <time>2020-12-30T11:48:46.000Z</time>
      </trkpt>
      <trkpt lat="48.00045" lon="6.98101">
        <ele>1260.41</ele>
        <time>2020-12-30T11:51:35.000Z</time>
      </trkpt>
      <trkpt lat="48.00028" lon="6.98096">
        <ele>1258.54</ele>
        <time>2020-12-30T11:51:40.000Z</time>
      </trkpt>
      <trkpt lat="48.00011" lon="6.98092">
        <ele>1255.62</ele>
        <time>2020-12-30T11:51:45.000Z</time>
      </trkpt>
      <trkpt lat="47.99996" lon="6.98096">
        <ele>1253.84</ele>
        <time>2020-12-30T11:51:50.000Z</time>
      </trkpt>
      <trkpt lat="47.99989" lon="6.98104">
        <ele>1252.83</ele>
        <time>2020-12-30T11:52:15.000Z</time>
      </trkpt>
      <trkpt lat="47.99979" lon="6.98108">
        <ele>1251.35</ele>
        <time>2020-12-30T11:52:20.000Z</time>
      </trkpt>
      <trkpt lat="47.99969" lon="6.9811">
        <ele>1249.8</ele>
        <time>2020-12-30T11:52:27.000Z</time>
      </trkpt>
      <trkpt lat="47.99963" lon="6.98127">
        <ele>1247.33</ele>
        <time>2020-12-30T11:52:32.000Z</time>
      </trkpt>
      <trkpt lat="47.99951" lon="6.98142">
        <ele>1244.44</ele>
        <time>2020-12-30T11:52:37.000Z</time>
      </trkpt>
      <trkpt lat="47.99937" lon="6.98142">
        <ele>1242.54</ele>
        <time>2020-12-30T11:52:42.000Z</time>
      </trkpt>
      <trkpt lat="47.99926" lon="6.98141">
        <ele>1240.62</ele>
        <time>2020-12-30T11:52:47.000Z</time>
      </trkpt>
      <trkpt lat="47.99917" lon="6.98147">
        <ele>1240.29</ele>
        <time>2020-12-30T11:53:17.000Z</time>
      </trkpt>
      <trkpt lat="47.999" lon="6.98163">
        <ele>1237.78</ele>
        <time>2020-12-30T11:53:22.000Z</time>
      </trkpt>
      <trkpt lat="47.99879" lon="6.98186">
        <ele>1233</ele>
        <time>2020-12-30T11:53:27.000Z</time>
      </trkpt>
      <trkpt lat="47.99869" lon="6.98204">
        <ele>1229.91</ele>
        <time>2020-12-30T11:53:32.000Z</time>
      </trkpt>
      <trkpt lat="47.99858" lon="6.98221">
        <ele>1227.59</ele>
        <time>2020-12-30T11:53:37.000Z</time>
      </trkpt>
      <trkpt lat="47.99856" lon="6.98241">
        <ele>1225.15</ele>
        <time>2020-12-30T11:53:42.000Z</time>
      </trkpt>
      <trkpt lat="47.99841" lon="6.98262">
        <ele>1222.71</ele>
        <time>2020-12-30T11:53:47.000Z</time>
      </trkpt>
      <trkpt lat="47.99827" lon="6.98283">
        <ele>1220.69</ele>
        <time>2020-12-30T11:53:52.000Z</time>
      </trkpt>
      <trkpt lat="47.99808" lon="6.98299">
        <ele>1217.92</ele>
        <time>2020-12-30T11:53:57.000Z</time>
      </trkpt>
      <trkpt lat="47.99791" lon="6.98311">
        <ele>1215.79</ele>
        <time>2020-12-30T11:54:02.000Z</time>
      </trkpt>
      <trkpt lat="47.99786" lon="6.98326">
        <ele>1214.61</ele>
        <time>2020-12-30T11:54:46.000Z</time>
      </trkpt>
      <trkpt lat="47.99775" lon="6.98342">
        <ele>1212.94</ele>
        <time>2020-12-30T11:54:51.000Z</time>
      </trkpt>
      <trkpt lat="47.99773" lon="6.98367">
        <ele>1208.77</ele>
        <time>2020-12-30T11:54:56.000Z</time>
      </trkpt>
      <trkpt lat="47.99772" lon="6.98398">
        <ele>1202.28</ele>
        <time>2020-12-30T11:55:01.000Z</time>
      </trkpt>
      <trkpt lat="47.99776" lon="6.98422">
        <ele>1195.53</ele>
        <time>2020-12-30T11:55:06.000Z</time>
      </trkpt>
      <trkpt lat="47.99786" lon="6.98448">
        <ele>1189.18</ele>
        <time>2020-12-30T11:55:11.000Z</time>
      </trkpt>
      <trkpt lat="47.99787" lon="6.98481">
        <ele>1183.36</ele>
        <time>2020-12-30T11:55:16.000Z</time>
      </trkpt>
      <trkpt lat="47.99788" lon="6.98506">
        <ele>1176.73</ele>
        <time>2020-12-30T11:55:21.000Z</time>
      </trkpt>
      <trkpt lat="47.99784" lon="6.98521">
        <ele>1174.7</ele>
        <time>2020-12-30T11:55:54.000Z</time>
      </trkpt>
      <trkpt lat="47.99776" lon="6.9854">
        <ele>1172.86</ele>
        <time>2020-12-30T11:55:59.000Z</time>
      </trkpt>
      <trkpt lat="47.99761" lon="6.98557">
        <ele>1168.8</ele>
        <time>2020-12-30T11:56:04.000Z</time>
      </trkpt>
      <trkpt lat="47.99748" lon="6.98551">
        <ele>1165.42</ele>
        <time>2020-12-30T11:56:24.000Z</time>
      </trkpt>
      <trkpt lat="47.99755" lon="6.98513">
        <ele>1164.94</ele>
        <time>2020-12-30T11:57:38.000Z</time>
      </trkpt>
      <trkpt lat="47.99751" lon="6.98495">
        <ele>1164.36</ele>
        <time>2020-12-30T11:57:43.000Z</time>
      </trkpt>
      <trkpt lat="47.99751" lon="6.98569">
        <ele>1164.18</ele>
        <time>2020-12-30T11:57:48.000Z</time>
      </trkpt>
      <trkpt lat="47.99741" lon="6.98564">
        <ele>1163.39</ele>
        <time>2020-12-30T11:58:03.000Z</time>
      </trkpt>
      <trkpt lat="47.99732" lon="6.98569">
        <ele>1167.91</ele>
        <time>2020-12-30T11:59:35.000Z</time>
      </trkpt>
      <trkpt lat="47.99718" lon="6.98586">
        <ele>1166.03</ele>
        <time>2020-12-30T11:59:40.000Z</time>
      </trkpt>
      <trkpt lat="47.99698" lon="6.98569">
        <ele>1162.62</ele>
        <time>2020-12-30T11:59:45.000Z</time>
      </trkpt>
      <trkpt lat="47.99683" lon="6.98545">
        <ele>1157.23</ele>
        <time>2020-12-30T11:59:50.000Z</time>
      </trkpt>
      <trkpt lat="47.9967" lon="6.98534">
        <ele>1152.32</ele>
        <time>2020-12-30T11:59:55.000Z</time>
      </trkpt>
      <trkpt lat="47.99652" lon="6.98529">
        <ele>1146.82</ele>
        <time>2020-12-30T12:00:00.000Z</time>
      </trkpt>
      <trkpt lat="47.99634" lon="6.98556">
        <ele>1137.98</ele>
        <time>2020-12-30T12:00:05.000Z</time>
      </trkpt>
      <trkpt lat="47.99615" lon="6.98586">
        <ele>1126.66</ele>
        <time>2020-12-30T12:00:10.000Z</time>
      </trkpt>
      <trkpt lat="47.99598" lon="6.98615">
        <ele>1114.54</ele>
        <time>2020-12-30T12:00:15.000Z</time>
      </trkpt>
      <trkpt lat="47.99585" lon="6.98646">
        <ele>1101.88</ele>
        <time>2020-12-30T12:00:20.000Z</time>
      </trkpt>
      <trkpt lat="47.99573" lon="6.98678">
        <ele>1089.7</ele>
        <time>2020-12-30T12:00:25.000Z</time>
      </trkpt>
      <trkpt lat="47.99565" lon="6.98712">
        <ele>1074.3</ele>
        <time>2020-12-30T12:00:30.000Z</time>
      </trkpt>
      <trkpt lat="47.9956" lon="6.98727">
        <ele>1068.11</ele>
        <time>2020-12-30T12:00:35.000Z</time>
      </trkpt>
      <trkpt lat="47.99565" lon="6.98738">
        <ele>1067.36</ele>
        <time>2020-12-30T12:00:53.000Z</time>
      </trkpt>
      <trkpt lat="47.99563" lon="6.98722">
        <ele>1067.14</ele>
        <time>2020-12-30T12:00:59.000Z</time>
      </trkpt>
      <trkpt lat="47.99561" lon="6.98735">
        <ele>1068.07</ele>
        <time>2020-12-30T12:04:06.000Z</time>
      </trkpt>
      <trkpt lat="47.99565" lon="6.98721">
        <ele>1069.75</ele>
        <time>2020-12-30T12:04:52.000Z</time>
      </trkpt>
      <trkpt lat="47.99567" lon="6.98735">
        <ele>1059.08</ele>
        <time>2020-12-30T12:08:02.000Z</time>
      </trkpt>
      <trkpt lat="47.99577" lon="6.98749">
        <ele>1057.17</ele>
        <time>2020-12-30T12:08:07.000Z</time>
      </trkpt>
      <trkpt lat="47.99574" lon="6.98778">
        <ele>1052.01</ele>
        <time>2020-12-30T12:08:12.000Z</time>
      </trkpt>
      <trkpt lat="47.99573" lon="6.98818">
        <ele>1041.75</ele>
        <time>2020-12-30T12:08:17.000Z</time>
      </trkpt>
      <trkpt lat="47.9959" lon="6.9885">
        <ele>1031.7</ele>
        <time>2020-12-30T12:08:22.000Z</time>
      </trkpt>
      <trkpt lat="47.99594" lon="6.9888">
        <ele>1023.12</ele>
        <time>2020-12-30T12:08:27.000Z</time>
      </trkpt>
      <trkpt lat="47.99604" lon="6.98896">
        <ele>1015.85</ele>
        <time>2020-12-30T12:08:32.000Z</time>
      </trkpt>
      <trkpt lat="47.99613" lon="6.98913">
        <ele>1010.1</ele>
        <time>2020-12-30T12:08:37.000Z</time>
      </trkpt>
      <trkpt lat="47.9962" lon="6.98931">
        <ele>1005.2</ele>
        <time>2020-12-30T12:08:42.000Z</time>
      </trkpt>
      <trkpt lat="47.99611" lon="6.98935">
        <ele>999.32</ele>
        <time>2020-12-30T12:08:48.000Z</time>
      </trkpt>
      <trkpt lat="47.99602" lon="6.98936">
        <ele>999.94</ele>
        <time>2020-12-30T12:09:08.000Z</time>
      </trkpt>
      <trkpt lat="47.9959" lon="6.98934">
        <ele>999.61</ele>
        <time>2020-12-30T12:09:23.000Z</time>
      </trkpt>
      <trkpt lat="47.99584" lon="6.98944">
        <ele>999.04</ele>
        <time>2020-12-30T12:09:30.000Z</time>
      </trkpt>
      <trkpt lat="47.99577" lon="6.98969">
        <ele>998</ele>
        <time>2020-12-30T12:09:35.000Z</time>
      </trkpt>
      <trkpt lat="47.99573" lon="6.9899">
        <ele>996.66</ele>
        <time>2020-12-30T12:09:40.000Z</time>
      </trkpt>
      <trkpt lat="47.99568" lon="6.99003">
        <ele>994.74</ele>
        <time>2020-12-30T12:10:44.000Z</time>
      </trkpt>
      <trkpt lat="47.99559" lon="6.99015">
        <ele>994.37</ele>
        <time>2020-12-30T12:10:49.000Z</time>
      </trkpt>
      <trkpt lat="47.99569" lon="6.99017">
        <ele>996.16</ele>
        <time>2020-12-30T12:11:42.000Z</time>
      </trkpt>
      <trkpt lat="47.99577" lon="6.99027">
        <ele>990.25</ele>
        <time>2020-12-30T12:13:14.000Z</time>
      </trkpt>
      <trkpt lat="47.99588" lon="6.99032">
        <ele>988.8</ele>
        <time>2020-12-30T12:13:19.000Z</time>
      </trkpt>
      <trkpt lat="47.99596" lon="6.99037">
        <ele>987.09</ele>
        <time>2020-12-30T12:13:24.000Z</time>
      </trkpt>
      <trkpt lat="47.99606" lon="6.99043">
        <ele>984.79</ele>
        <time>2020-12-30T12:13:30.000Z</time>
      </trkpt>
      <trkpt lat="47.99614" lon="6.99051">
        <ele>982.96</ele>
        <time>2020-12-30T12:13:36.000Z</time>
      </trkpt>
      <trkpt lat="47.99626" lon="6.99056">
        <ele>980.01</ele>
        <time>2020-12-30T12:13:49.000Z</time>
      </trkpt>
      <trkpt lat="47.99638" lon="6.99062">
        <ele>976.66</ele>
        <time>2020-12-30T12:14:03.000Z</time>
      </trkpt>
      <trkpt lat="47.99656" lon="6.99063">
        <ele>972.39</ele>
        <time>2020-12-30T12:14:24.000Z</time>
      </trkpt>
      <trkpt lat="47.99668" lon="6.99063">
        <ele>969.51</ele>
        <time>2020-12-30T12:14:39.000Z</time>
      </trkpt>
      <trkpt lat="47.99686" lon="6.99066">
        <ele>967.84</ele>
        <time>2020-12-30T12:14:57.000Z</time>
      </trkpt>
      <trkpt lat="47.99696" lon="6.99072">
        <ele>966.49</ele>
        <time>2020-12-30T12:15:14.000Z</time>
      </trkpt>
      <trkpt lat="47.99707" lon="6.99079">
        <ele>966.39</ele>
        <time>2020-12-30T12:15:26.000Z</time>
      </trkpt>
      <trkpt lat="47.99715" lon="6.99085">
        <ele>967.78</ele>
        <time>2020-12-30T12:15:34.000Z</time>
      </trkpt>
      <trkpt lat="47.99726" lon="6.99089">
        <ele>967.21</ele>
        <time>2020-12-30T12:15:49.000Z</time>
      </trkpt>
      <trkpt lat="47.99734" lon="6.99097">
        <ele>967.09</ele>
        <time>2020-12-30T12:15:57.000Z</time>
      </trkpt>
      <trkpt lat="47.99741" lon="6.99107">
        <ele>967.56</ele>
        <time>2020-12-30T12:16:04.000Z</time>
      </trkpt>
      <trkpt lat="47.99749" lon="6.99115">
        <ele>967.17</ele>
        <time>2020-12-30T12:16:11.000Z</time>
      </trkpt>
      <trkpt lat="47.99758" lon="6.99122">
        <ele>967.18</ele>
        <time>2020-12-30T12:16:18.000Z</time>
      </trkpt>
      <trkpt lat="47.99772" lon="6.99132">
        <ele>966.46</ele>
        <time>2020-12-30T12:16:32.000Z</time>
      </trkpt>
      <trkpt lat="47.99788" lon="6.99142">
        <ele>964.71</ele>
        <time>2020-12-30T12:16:50.000Z</time>
      </trkpt>
      <trkpt lat="47.998" lon="6.99146">
        <ele>963.49</ele>
        <time>2020-12-30T12:17:04.000Z</time>
      </trkpt>
      <trkpt lat="47.9981" lon="6.99156">
        <ele>962.79</ele>
        <time>2020-12-30T12:17:21.000Z</time>
      </trkpt>
      <trkpt lat="47.99818" lon="6.99168">
        <ele>962.19</ele>
        <time>2020-12-30T12:17:43.000Z</time>
      </trkpt>
      <trkpt lat="47.99828" lon="6.99178">
        <ele>961.52</ele>
        <time>2020-12-30T12:17:48.000Z</time>
      </trkpt>
      <trkpt lat="47.99835" lon="6.99204">
        <ele>959.01</ele>
        <time>2020-12-30T12:17:53.000Z</time>
      </trkpt>
      <trkpt lat="47.99832" lon="6.99222">
        <ele>956.39</ele>
        <time>2020-12-30T12:17:58.000Z</time>
      </trkpt>
      <trkpt lat="47.99835" lon="6.99248">
        <ele>953.42</ele>
        <time>2020-12-30T12:18:03.000Z</time>
      </trkpt>
      <trkpt lat="47.99844" lon="6.99262">
        <ele>949.83</ele>
        <time>2020-12-30T12:18:08.000Z</time>
      </trkpt>
      <trkpt lat="47.99846" lon="6.99277">
        <ele>948.52</ele>
        <time>2020-12-30T12:18:32.000Z</time>
      </trkpt>
      <trkpt lat="47.99855" lon="6.99279">
        <ele>949.66</ele>
        <time>2020-12-30T12:19:05.000Z</time>
      </trkpt>
      <trkpt lat="47.99866" lon="6.9928">
        <ele>952.29</ele>
        <time>2020-12-30T12:19:35.000Z</time>
      </trkpt>
      <trkpt lat="47.99876" lon="6.99285">
        <ele>951.14</ele>
        <time>2020-12-30T12:19:41.000Z</time>
      </trkpt>
      <trkpt lat="47.99886" lon="6.99292">
        <ele>947.78</ele>
        <time>2020-12-30T12:19:47.000Z</time>
      </trkpt>
      <trkpt lat="47.99894" lon="6.99299">
        <ele>945.81</ele>
        <time>2020-12-30T12:20:45.000Z</time>
      </trkpt>
      <trkpt lat="47.99903" lon="6.99295">
        <ele>945</ele>
        <time>2020-12-30T12:20:52.000Z</time>
      </trkpt>
      <trkpt lat="47.99911" lon="6.99283">
        <ele>944.22</ele>
        <time>2020-12-30T12:20:57.000Z</time>
      </trkpt>
      <trkpt lat="47.99925" lon="6.99281">
        <ele>942.39</ele>
        <time>2020-12-30T12:21:02.000Z</time>
      </trkpt>
      <trkpt lat="47.99937" lon="6.99289">
        <ele>937.96</ele>
        <time>2020-12-30T12:22:24.000Z</time>
      </trkpt>
      <trkpt lat="47.99943" lon="6.993">
        <ele>935.96</ele>
        <time>2020-12-30T12:22:33.000Z</time>
      </trkpt>
      <trkpt lat="47.99948" lon="6.99315">
        <ele>934.34</ele>
        <time>2020-12-30T12:22:56.000Z</time>
      </trkpt>
      <trkpt lat="47.99955" lon="6.99327">
        <ele>931.01</ele>
        <time>2020-12-30T12:23:01.000Z</time>
      </trkpt>
      <trkpt lat="47.99959" lon="6.99344">
        <ele>923.31</ele>
        <time>2020-12-30T12:25:18.000Z</time>
      </trkpt>
      <trkpt lat="47.99969" lon="6.99352">
        <ele>916.47</ele>
        <time>2020-12-30T12:25:51.000Z</time>
      </trkpt>
      <trkpt lat="47.99978" lon="6.99352">
        <ele>913.69</ele>
        <time>2020-12-30T12:26:06.000Z</time>
      </trkpt>
      <trkpt lat="47.99989" lon="6.99358">
        <ele>911.83</ele>
        <time>2020-12-30T12:26:11.000Z</time>
      </trkpt>
      <trkpt lat="48.00003" lon="6.99363">
        <ele>906.54</ele>
        <time>2020-12-30T12:26:41.000Z</time>
      </trkpt>
      <trkpt lat="48.00014" lon="6.9935">
        <ele>898.79</ele>
        <time>2020-12-30T12:27:57.000Z</time>
      </trkpt>
      <trkpt lat="48.00016" lon="6.99337">
        <ele>896.01</ele>
        <time>2020-12-30T12:28:19.000Z</time>
      </trkpt>
      <trkpt lat="48.00023" lon="6.99329">
        <ele>889.01</ele>
        <time>2020-12-30T12:30:50.000Z</time>
      </trkpt>
      <trkpt lat="48.00033" lon="6.99325">
        <ele>884.55</ele>
        <time>2020-12-30T12:30:56.000Z</time>
      </trkpt>
      <trkpt lat="48.00047" lon="6.99328">
        <ele>880.21</ele>
        <time>2020-12-30T12:31:01.000Z</time>
      </trkpt>
      <trkpt lat="48.00042" lon="6.99341">
        <ele>867.79</ele>
        <time>2020-12-30T12:32:25.000Z</time>
      </trkpt>
      <trkpt lat="48.00032" lon="6.99344">
        <ele>865.81</ele>
        <time>2020-12-30T12:32:57.000Z</time>
      </trkpt>
      <trkpt lat="48.00037" lon="6.99356">
        <ele>862.31</ele>
        <time>2020-12-30T12:33:19.000Z</time>
      </trkpt>
      <trkpt lat="48.00046" lon="6.99369">
        <ele>859.16</ele>
        <time>2020-12-30T12:33:29.000Z</time>
      </trkpt>
      <trkpt lat="48.00047" lon="6.99384">
        <ele>855.29</ele>
        <time>2020-12-30T12:35:08.000Z</time>
      </trkpt>
      <trkpt lat="48.00058" lon="6.99389">
        <ele>850.76</ele>
        <time>2020-12-30T12:35:21.000Z</time>
      </trkpt>
      <trkpt lat="48.0007" lon="6.99403">
        <ele>844.84</ele>
        <time>2020-12-30T12:36:17.000Z</time>
      </trkpt>
      <trkpt lat="48.00076" lon="6.99414">
        <ele>841.6</ele>
        <time>2020-12-30T12:36:24.000Z</time>
      </trkpt>
      <trkpt lat="48.00086" lon="6.99416">
        <ele>837.75</ele>
        <time>2020-12-30T12:36:30.000Z</time>
      </trkpt>
      <trkpt lat="48.00089" lon="6.99439">
        <ele>831.81</ele>
        <time>2020-12-30T12:36:54.000Z</time>
      </trkpt>
      <trkpt lat="48.00084" lon="6.9945">
        <ele>830.27</ele>
        <time>2020-12-30T12:36:59.000Z</time>
      </trkpt>
      <trkpt lat="48.00079" lon="6.99466">
        <ele>825.11</ele>
        <time>2020-12-30T12:38:56.000Z</time>
      </trkpt>
      <trkpt lat="48.00074" lon="6.99478">
        <ele>822.07</ele>
        <time>2020-12-30T12:39:11.000Z</time>
      </trkpt>
      <trkpt lat="48.00069" lon="6.99493">
        <ele>820.76</ele>
        <time>2020-12-30T12:39:16.000Z</time>
      </trkpt>
      <trkpt lat="48.0006" lon="6.99518">
        <ele>818.91</ele>
        <time>2020-12-30T12:39:21.000Z</time>
      </trkpt>
      <trkpt lat="48.00054" lon="6.99543">
        <ele>816.55</ele>
        <time>2020-12-30T12:39:26.000Z</time>
      </trkpt>
      <trkpt lat="48.00043" lon="6.9957">
        <ele>813.17</ele>
        <time>2020-12-30T12:39:31.000Z</time>
      </trkpt>
      <trkpt lat="48.00035" lon="6.99593">
        <ele>808.14</ele>
        <time>2020-12-30T12:40:14.000Z</time>
      </trkpt>
      <trkpt lat="48.00037" lon="6.99611">
        <ele>806.41</ele>
        <time>2020-12-30T12:40:39.000Z</time>
      </trkpt>
      <trkpt lat="48.00033" lon="6.99632">
        <ele>805.7</ele>
        <time>2020-12-30T12:40:44.000Z</time>
      </trkpt>
      <trkpt lat="48.00031" lon="6.99657">
        <ele>804.37</ele>
        <time>2020-12-30T12:40:49.000Z</time>
      </trkpt>
      <trkpt lat="48.00032" lon="6.9968">
        <ele>802.84</ele>
        <time>2020-12-30T12:40:54.000Z</time>
      </trkpt>
      <trkpt lat="48.00032" lon="6.997">
        <ele>796.51</ele>
        <time>2020-12-30T12:41:30.000Z</time>
      </trkpt>
      <trkpt lat="48.00038" lon="6.9969">
        <ele>788.01</ele>
        <time>2020-12-30T12:41:48.000Z</time>
      </trkpt>
      <trkpt lat="48.00047" lon="6.99673">
        <ele>784.16</ele>
        <time>2020-12-30T12:41:53.000Z</time>
      </trkpt>
      <trkpt lat="48.00054" lon="6.99657">
        <ele>778.76</ele>
        <time>2020-12-30T12:41:58.000Z</time>
      </trkpt>
      <trkpt lat="48.00066" lon="6.99647">
        <ele>767.52</ele>
        <time>2020-12-30T12:42:09.000Z</time>
      </trkpt>
      <trkpt lat="48.00079" lon="6.99644">
        <ele>761.87</ele>
        <time>2020-12-30T12:42:16.000Z</time>
      </trkpt>
      <trkpt lat="48.00093" lon="6.99639">
        <ele>757.59</ele>
        <time>2020-12-30T12:42:21.000Z</time>
      </trkpt>
      <trkpt lat="48.00109" lon="6.99638">
        <ele>754.24</ele>
        <time>2020-12-30T12:42:26.000Z</time>
      </trkpt>
      <trkpt lat="48.00121" lon="6.99632">
        <ele>750.31</ele>
        <time>2020-12-30T12:42:31.000Z</time>
      </trkpt>
      <trkpt lat="48.00132" lon="6.99632">
        <ele>745.69</ele>
        <time>2020-12-30T12:42:36.000Z</time>
      </trkpt>
      <trkpt lat="48.0015" lon="6.99634">
        <ele>740.61</ele>
        <time>2020-12-30T12:42:41.000Z</time>
      </trkpt>
      <trkpt lat="48.00172" lon="6.99626">
        <ele>737.16</ele>
        <time>2020-12-30T12:42:46.000Z</time>
      </trkpt>
      <trkpt lat="48.00187" lon="6.99622">
        <ele>733.22</ele>
        <time>2020-12-30T12:42:51.000Z</time>
      </trkpt>
      <trkpt lat="48.00204" lon="6.99621">
        <ele>729.28</ele>
        <time>2020-12-30T12:42:56.000Z</time>
      </trkpt>
      <trkpt lat="48.00215" lon="6.9962">
        <ele>725.36</ele>
        <time>2020-12-30T12:43:09.000Z</time>
      </trkpt>
      <trkpt lat="48.00226" lon="6.99623">
        <ele>720.39</ele>
        <time>2020-12-30T12:43:27.000Z</time>
      </trkpt>
      <trkpt lat="48.00237" lon="6.99627">
        <ele>718.11</ele>
        <time>2020-12-30T12:43:45.000Z</time>
      </trkpt>
      <trkpt lat="48.00244" lon="6.99638">
        <ele>717.91</ele>
        <time>2020-12-30T12:44:19.000Z</time>
      </trkpt>
      <trkpt lat="48.0025" lon="6.9965">
        <ele>717.13</ele>
        <time>2020-12-30T12:44:25.000Z</time>
      </trkpt>
      <trkpt lat="48.00255" lon="6.99661">
        <ele>716.21</ele>
        <time>2020-12-30T12:44:30.000Z</time>
      </trkpt>
      <trkpt lat="48.00253" lon="6.99678">
        <ele>715.67</ele>
        <time>2020-12-30T12:44:35.000Z</time>
      </trkpt>
      <trkpt lat="48.00237" lon="6.99695">
        <ele>715.12</ele>
        <time>2020-12-30T12:44:40.000Z</time>
      </trkpt>
      <trkpt lat="48.00219" lon="6.99698">
        <ele>714.4</ele>
        <time>2020-12-30T12:44:45.000Z</time>
      </trkpt>
      <trkpt lat="48.00203" lon="6.99705">
        <ele>713.16</ele>
        <time>2020-12-30T12:44:50.000Z</time>
      </trkpt>
      <trkpt lat="48.00191" lon="6.99716">
        <ele>711.78</ele>
        <time>2020-12-30T12:44:55.000Z</time>
      </trkpt>
      <trkpt lat="48.0018" lon="6.99732">
        <ele>710.9</ele>
        <time>2020-12-30T12:45:00.000Z</time>
      </trkpt>
      <trkpt lat="48.00169" lon="6.99746">
        <ele>710.63</ele>
        <time>2020-12-30T12:45:05.000Z</time>
      </trkpt>
      <trkpt lat="48.0016" lon="6.99757">
        <ele>710.71</ele>
        <time>2020-12-30T12:45:12.000Z</time>
      </trkpt>
      <trkpt lat="48.00153" lon="6.99772">
        <ele>710.14</ele>
        <time>2020-12-30T12:45:17.000Z</time>
      </trkpt>
      <trkpt lat="48.00148" lon="6.99792">
        <ele>709.87</ele>
        <time>2020-12-30T12:45:22.000Z</time>
      </trkpt>
      <trkpt lat="48.00137" lon="6.99816">
        <ele>709.22</ele>
        <time>2020-12-30T12:45:27.000Z</time>
      </trkpt>
      <trkpt lat="48.00121" lon="6.9983">
        <ele>708.77</ele>
        <time>2020-12-30T12:45:32.000Z</time>
      </trkpt>
      <trkpt lat="48.0011" lon="6.99834">
        <ele>708.56</ele>
        <time>2020-12-30T12:45:43.000Z</time>
      </trkpt>
      <trkpt lat="48.00107" lon="6.9985">
        <ele>708.67</ele>
        <time>2020-12-30T12:46:19.000Z</time>
      </trkpt>
      <trkpt lat="48.00105" lon="6.9987">
        <ele>708.29</ele>
        <time>2020-12-30T12:46:24.000Z</time>
      </trkpt>
      <trkpt lat="48.00106" lon="6.99892">
        <ele>707.7</ele>
        <time>2020-12-30T12:46:29.000Z</time>
      </trkpt>
      <trkpt lat="48.00107" lon="6.99917">
        <ele>707.2</ele>
        <time>2020-12-30T12:46:34.000Z</time>
      </trkpt>
      <trkpt lat="48.00106" lon="6.99935">
        <ele>706.34</ele>
        <time>2020-12-30T12:46:50.000Z</time>
      </trkpt>
      <trkpt lat="48.00102" lon="6.99954">
        <ele>706.41</ele>
        <time>2020-12-30T12:46:58.000Z</time>
      </trkpt>
      <trkpt lat="48.00088" lon="6.99966">
        <ele>706.46</ele>
        <time>2020-12-30T12:47:11.000Z</time>
      </trkpt>
      <trkpt lat="48.00088" lon="6.99979">
        <ele>706.49</ele>
        <time>2020-12-30T12:47:18.000Z</time>
      </trkpt>
      <trkpt lat="48.00086" lon="7.00004">
        <ele>706.02</ele>
        <time>2020-12-30T12:47:23.000Z</time>
      </trkpt>
      <trkpt lat="48.00078" lon="7.00035">
        <ele>705.49</ele>
        <time>2020-12-30T12:47:28.000Z</time>
      </trkpt>
      <trkpt lat="48.00074" lon="7.0007">
        <ele>704.33</ele>
        <time>2020-12-30T12:47:33.000Z</time>
      </trkpt>
      <trkpt lat="48.00072" lon="7.001">
        <ele>702.29</ele>
        <time>2020-12-30T12:47:38.000Z</time>
      </trkpt>
      <trkpt lat="48.00082" lon="7.00125">
        <ele>698.47</ele>
        <time>2020-12-30T12:47:43.000Z</time>
      </trkpt>
      <trkpt lat="48.001" lon="7.00142">
        <ele>694.23</ele>
        <time>2020-12-30T12:47:48.000Z</time>
      </trkpt>
      <trkpt lat="48.0013" lon="7.00156">
        <ele>690.26</ele>
        <time>2020-12-30T12:47:53.000Z</time>
      </trkpt>
      <trkpt lat="48.00145" lon="7.00187">
        <ele>680.8</ele>
        <time>2020-12-30T12:47:58.000Z</time>
      </trkpt>
      <trkpt lat="48.00151" lon="7.00227">
        <ele>675.93</ele>
        <time>2020-12-30T12:48:03.000Z</time>
      </trkpt>
      <trkpt lat="48.00154" lon="7.0026">
        <ele>671.5</ele>
        <time>2020-12-30T12:48:08.000Z</time>
      </trkpt>
      <trkpt lat="48.00158" lon="7.00299">
        <ele>665.42</ele>
        <time>2020-12-30T12:48:13.000Z</time>
      </trkpt>
      <trkpt lat="48.00159" lon="7.00312">
        <ele>660.56</ele>
        <time>2020-12-30T12:48:18.000Z</time>
      </trkpt>
      <trkpt lat="48.00159" lon="7.00327">
        <ele>658.11</ele>
        <time>2020-12-30T12:48:28.000Z</time>
      </trkpt>
      <trkpt lat="48.00159" lon="7.00342">
        <ele>656.41</ele>
        <time>2020-12-30T12:49:25.000Z</time>
      </trkpt>
      <trkpt lat="48.00149" lon="7.00349">
        <ele>656.26</ele>
        <time>2020-12-30T12:49:38.000Z</time>
      </trkpt>
      <trkpt lat="48.00151" lon="7.00352">
        <ele>656.36</ele>
        <time>2020-12-30T12:50:02.000Z</time>
      </trkpt>
    </trkseg>
  </trk>
</gpx>